BBC306 CYYZ-LIRF
Flight info
| Callsign | BBC306 |
|---|---|
| Flight time | 8h 5m |
| Altitude | 39000 |
| Route | VERDO7 IPTOS Q921 AGLUK DCT BAREE N447B ELSIR/M084F400 DCT 50N050W 51N040W 52N030W 53N020W DCT MALOT DCT GISTI/N0485F410 DCT BIBLA/M084F410 DCT ARKIL/N0483F410 DCT DOLUR DCT TERKU DCT KORER DCT LEMKA DCT BEBIX DCT YAQEL DCT RETNO DCT KOLON DCT RAPUR DCT RATAP/N0430F290 DCT BTA/N0415F280 DCT MOULE DCT XOPTA DCT ELB DCT ELKAP |
| Aircraft | B788/H-SDE2E3FGHIJ3J4J5M1RWXY/LB1D1 |
Departure
| Time | 2026-05-05 18:39 |
|---|---|
| Airport | Toronto Pearson International Airport (CYYZ) |
Arrival
| Time | 2026-05-06 02:44 |
|---|---|
| Airport | Rome–Fiumicino Leonardo da Vinci International Airport (LIRF) |
| Time | Latitude | Longitude | Altitude | Speed | Heading |
|---|---|---|---|---|---|
| 2026-05-05 18:03 | 43.68492 | -79.62488 | 567 ft | 0 kts | 88° |
| 2026-05-05 18:30 | 43.68492 | -79.62494 | 538 ft | 6 kts | 84° |
| 2026-05-05 18:30 | 43.68447 | -79.62543 | 575 ft | 12 kts | 343° |
| 2026-05-05 18:30 | 43.68434 | -79.62536 | 572 ft | 0 kts | 328° |
| 2026-05-05 18:31 | 43.68446 | -79.62547 | 574 ft | 5 kts | 321° |
| 2026-05-05 18:31 | 43.68483 | -79.62596 | 572 ft | 8 kts | 308° |
| 2026-05-05 18:32 | 43.68486 | -79.62657 | 570 ft | 6 kts | 243° |
| 2026-05-05 18:32 | 43.68478 | -79.62731 | 572 ft | 10 kts | 289° |
| 2026-05-05 18:32 | 43.68532 | -79.62818 | 575 ft | 13 kts | 317° |
| 2026-05-05 18:32 | 43.68598 | -79.62904 | 573 ft | 13 kts | 316° |
| 2026-05-05 18:33 | 43.68660 | -79.62985 | 569 ft | 12 kts | 316° |
| 2026-05-05 18:33 | 43.68717 | -79.63058 | 572 ft | 10 kts | 317° |
| 2026-05-05 18:33 | 43.68765 | -79.63119 | 574 ft | 9 kts | 316° |
| 2026-05-05 18:33 | 43.68807 | -79.63176 | 571 ft | 9 kts | 316° |
| 2026-05-05 18:34 | 43.68851 | -79.63234 | 572 ft | 9 kts | 316° |
| 2026-05-05 18:34 | 43.68893 | -79.63288 | 572 ft | 8 kts | 316° |
| 2026-05-05 18:34 | 43.68930 | -79.63336 | 575 ft | 7 kts | 316° |
| 2026-05-05 18:34 | 43.68969 | -79.63387 | 571 ft | 8 kts | 316° |
| 2026-05-05 18:35 | 43.69015 | -79.63449 | 571 ft | 10 kts | 316° |
| 2026-05-05 18:35 | 43.69069 | -79.63518 | 571 ft | 10 kts | 327° |
| 2026-05-05 18:35 | 43.69128 | -79.63514 | 571 ft | 9 kts | 37° |
| 2026-05-05 18:35 | 43.69184 | -79.63444 | 576 ft | 13 kts | 30° |
| 2026-05-05 18:36 | 43.69283 | -79.63421 | 571 ft | 17 kts | 6° |
| 2026-05-05 18:36 | 43.69384 | -79.63352 | 575 ft | 16 kts | 34° |
| 2026-05-05 18:36 | 43.69470 | -79.63321 | 577 ft | 12 kts | 325° |
| 2026-05-05 18:36 | 43.69492 | -79.63392 | 571 ft | 2 kts | 243° |
| 2026-05-05 18:37 | 43.69482 | -79.63408 | 575 ft | 0 kts | 227° |
| 2026-05-05 18:38 | 43.69467 | -79.63431 | 576 ft | 20 kts | 227° |
| 2026-05-05 18:38 | 43.69206 | -79.63814 | 573 ft | 87 kts | 229° |
| 2026-05-05 18:38 | 43.68636 | -79.64617 | 575 ft | 143 kts | 231° |
| 2026-05-05 18:39 | 43.67859 | -79.65719 | 921 ft | 173 kts | 227° |
| 2026-05-05 18:39 | 43.67056 | -79.67058 | 1590 ft | 187 kts | 242° |
| 2026-05-05 18:39 | 43.66325 | -79.68527 | 2794 ft | 184 kts | 234° |
| 2026-05-05 18:39 | 43.65521 | -79.70083 | 3168 ft | 222 kts | 236° |
| 2026-05-05 18:40 | 43.64188 | -79.71328 | 3087 ft | 243 kts | 195° |
| 2026-05-05 18:40 | 43.62481 | -79.71102 | 3086 ft | 258 kts | 159° |
| 2026-05-05 18:40 | 43.60976 | -79.69751 | 3088 ft | 263 kts | 145° |
| 2026-05-05 18:40 | 43.59568 | -79.68142 | 3102 ft | 262 kts | 143° |
| 2026-05-05 18:41 | 43.58143 | -79.66597 | 3089 ft | 259 kts | 147° |
| 2026-05-05 18:41 | 43.56667 | -79.65146 | 3104 ft | 261 kts | 148° |
| 2026-05-05 18:41 | 43.55186 | -79.63693 | 3102 ft | 259 kts | 147° |
| 2026-05-05 18:41 | 43.53745 | -79.62238 | 3256 ft | 251 kts | 147° |
| 2026-05-05 18:42 | 43.52328 | -79.60801 | 3764 ft | 261 kts | 147° |
| 2026-05-05 18:42 | 43.51148 | -79.58860 | 4248 ft | 274 kts | 117° |
| 2026-05-05 18:42 | 43.50789 | -79.56252 | 4753 ft | 286 kts | 86° |
| 2026-05-05 18:42 | 43.51193 | -79.53486 | 4984 ft | 303 kts | 75° |
| 2026-05-05 18:43 | 43.51781 | -79.50665 | 5100 ft | 317 kts | 73° |
| 2026-05-05 18:43 | 43.52398 | -79.47682 | 6017 ft | 328 kts | 76° |
| 2026-05-05 18:43 | 43.52975 | -79.44609 | 7145 ft | 330 kts | 78° |
| 2026-05-05 18:43 | 43.53737 | -79.41629 | 8419 ft | 330 kts | 62° |
| 2026-05-05 18:44 | 43.54812 | -79.38827 | 9698 ft | 328 kts | 64° |
| 2026-05-05 18:44 | 43.55820 | -79.35960 | 10676 ft | 335 kts | 65° |
| 2026-05-05 18:44 | 43.56847 | -79.33060 | 11659 ft | 339 kts | 64° |
| 2026-05-05 18:44 | 43.57916 | -79.30149 | 12668 ft | 341 kts | 64° |
| 2026-05-05 18:45 | 43.58983 | -79.27246 | 13684 ft | 341 kts | 64° |
| 2026-05-05 18:45 | 43.60055 | -79.24280 | 14494 ft | 347 kts | 64° |
| 2026-05-05 18:45 | 43.61142 | -79.21262 | 15191 ft | 357 kts | 64° |
| 2026-05-05 18:45 | 43.62272 | -79.18140 | 15816 ft | 369 kts | 63° |
| 2026-05-05 18:46 | 43.63433 | -79.14937 | 16466 ft | 381 kts | 63° |
| 2026-05-05 18:46 | 43.64628 | -79.11627 | 17165 ft | 389 kts | 63° |
| 2026-05-05 18:46 | 43.65846 | -79.08245 | 17971 ft | 395 kts | 63° |
| 2026-05-05 18:46 | 43.67076 | -79.04826 | 18679 ft | 399 kts | 63° |
| 2026-05-05 18:47 | 43.68318 | -79.01373 | 19400 ft | 403 kts | 63° |
| 2026-05-05 18:47 | 43.69156 | -78.99041 | 19902 ft | 405 kts | 63° |
| 2026-05-05 18:47 | 43.70412 | -78.95540 | 20654 ft | 408 kts | 63° |
| 2026-05-05 18:47 | 43.71673 | -78.92022 | 21413 ft | 409 kts | 63° |
| 2026-05-05 18:48 | 43.72941 | -78.88481 | 22196 ft | 410 kts | 63° |
| 2026-05-05 18:48 | 43.74221 | -78.84899 | 22869 ft | 414 kts | 63° |
| 2026-05-05 18:48 | 43.75501 | -78.81314 | 23507 ft | 417 kts | 63° |
| 2026-05-05 18:48 | 43.76774 | -78.77744 | 24075 ft | 420 kts | 63° |
| 2026-05-05 18:49 | 43.78072 | -78.74084 | 24664 ft | 421 kts | 63° |
| 2026-05-05 18:49 | 43.79340 | -78.70404 | 25267 ft | 422 kts | 63° |
| 2026-05-05 18:49 | 43.80589 | -78.66756 | 25764 ft | 426 kts | 62° |
| 2026-05-05 18:49 | 43.81877 | -78.63040 | 26272 ft | 430 kts | 62° |
| 2026-05-05 18:50 | 43.83180 | -78.59294 | 26763 ft | 433 kts | 61° |
| 2026-05-05 18:50 | 43.84487 | -78.55506 | 27283 ft | 436 kts | 61° |
| 2026-05-05 18:50 | 43.85792 | -78.51707 | 27774 ft | 439 kts | 61° |
| 2026-05-05 18:50 | 43.87116 | -78.47855 | 28258 ft | 443 kts | 60° |
| 2026-05-05 18:51 | 43.88448 | -78.43986 | 28737 ft | 445 kts | 60° |
| 2026-05-05 18:51 | 43.89781 | -78.40102 | 29256 ft | 448 kts | 60° |
| 2026-05-05 18:51 | 43.91122 | -78.36186 | 29758 ft | 450 kts | 60° |
| 2026-05-05 18:51 | 43.92469 | -78.32247 | 30137 ft | 453 kts | 60° |
| 2026-05-05 18:52 | 43.93825 | -78.28279 | 30503 ft | 457 kts | 60° |
| 2026-05-05 18:52 | 43.95180 | -78.24310 | 30842 ft | 461 kts | 60° |
| 2026-05-05 18:52 | 43.96560 | -78.20256 | 31205 ft | 464 kts | 60° |
| 2026-05-05 18:52 | 43.97943 | -78.16188 | 31568 ft | 467 kts | 61° |
| 2026-05-05 18:53 | 43.99332 | -78.12096 | 31939 ft | 470 kts | 61° |
| 2026-05-05 18:53 | 44.00717 | -78.08013 | 32289 ft | 472 kts | 61° |
| 2026-05-05 18:53 | 44.02117 | -78.03878 | 32667 ft | 474 kts | 61° |
| 2026-05-05 18:53 | 44.03522 | -77.99721 | 33051 ft | 476 kts | 61° |
| 2026-05-05 18:54 | 44.04930 | -77.95547 | 33386 ft | 479 kts | 62° |
| 2026-05-05 18:54 | 44.06352 | -77.91329 | 33660 ft | 483 kts | 62° |
| 2026-05-05 18:54 | 44.07791 | -77.87053 | 33916 ft | 487 kts | 62° |
| 2026-05-05 18:54 | 44.09232 | -77.82763 | 34154 ft | 491 kts | 62° |
| 2026-05-05 18:55 | 44.10683 | -77.78435 | 34408 ft | 494 kts | 62° |
| 2026-05-05 18:55 | 44.12145 | -77.74069 | 34670 ft | 498 kts | 62° |
| 2026-05-05 18:55 | 44.13589 | -77.69747 | 34908 ft | 501 kts | 62° |
| 2026-05-05 18:55 | 44.15091 | -77.65248 | 35170 ft | 503 kts | 63° |
| 2026-05-05 18:56 | 44.16551 | -77.60864 | 35418 ft | 506 kts | 63° |
| 2026-05-05 18:56 | 44.18077 | -77.56278 | 35612 ft | 510 kts | 63° |
| 2026-05-05 18:56 | 44.19599 | -77.51781 | 35853 ft | 511 kts | 58° |
| 2026-05-05 18:56 | 44.21547 | -77.47668 | 36162 ft | 505 kts | 46° |
| 2026-05-05 18:57 | 44.23758 | -77.43809 | 36402 ft | 507 kts | 47° |
| 2026-05-05 18:57 | 44.25955 | -77.40009 | 36606 ft | 510 kts | 47° |
| 2026-05-05 18:57 | 44.28182 | -77.36141 | 36845 ft | 512 kts | 47° |
| 2026-05-05 18:57 | 44.30414 | -77.32231 | 37049 ft | 515 kts | 47° |
| 2026-05-05 18:58 | 44.32652 | -77.28307 | 37276 ft | 517 kts | 47° |
| 2026-05-05 18:58 | 44.34902 | -77.24374 | 37501 ft | 518 kts | 47° |
| 2026-05-05 18:58 | 44.37165 | -77.20415 | 37724 ft | 520 kts | 47° |
| 2026-05-05 18:58 | 44.39427 | -77.16442 | 37953 ft | 522 kts | 48° |
| 2026-05-05 18:59 | 44.41675 | -77.12484 | 38232 ft | 522 kts | 48° |
| 2026-05-05 18:59 | 44.43938 | -77.08501 | 38489 ft | 522 kts | 48° |
| 2026-05-05 18:59 | 44.46201 | -77.04515 | 38694 ft | 523 kts | 48° |
| 2026-05-05 18:59 | 44.48475 | -77.00504 | 38693 ft | 529 kts | 48° |
| 2026-05-05 19:00 | 44.53090 | -76.92338 | 38703 ft | 540 kts | 48° |
| 2026-05-05 19:00 | 44.57604 | -76.84332 | 38701 ft | 550 kts | 49° |
| 2026-05-05 19:01 | 44.62328 | -76.75923 | 38698 ft | 550 kts | 49° |
| 2026-05-05 19:01 | 44.67056 | -76.67491 | 38692 ft | 547 kts | 49° |
| 2026-05-05 19:02 | 44.71763 | -76.59067 | 38689 ft | 547 kts | 49° |
| 2026-05-05 19:02 | 44.76412 | -76.50723 | 38681 ft | 547 kts | 49° |
| 2026-05-05 19:03 | 44.81119 | -76.42251 | 38677 ft | 547 kts | 49° |
| 2026-05-05 19:03 | 44.85817 | -76.33770 | 38670 ft | 548 kts | 49° |
| 2026-05-05 19:04 | 44.90498 | -76.25248 | 38670 ft | 550 kts | 53° |
| 2026-05-05 19:04 | 44.92432 | -76.20593 | 38696 ft | 552 kts | 66° |
| 2026-05-05 19:04 | 44.93794 | -76.15572 | 38666 ft | 553 kts | 71° |
| 2026-05-05 19:05 | 44.96275 | -76.05324 | 38661 ft | 552 kts | 71° |
| 2026-05-05 19:05 | 44.98784 | -75.95060 | 38655 ft | 551 kts | 71° |
| 2026-05-05 19:06 | 45.01273 | -75.84759 | 38651 ft | 551 kts | 71° |
| 2026-05-05 19:06 | 45.03760 | -75.74447 | 38648 ft | 550 kts | 71° |
| 2026-05-05 19:07 | 45.06203 | -75.64266 | 38647 ft | 550 kts | 72° |
| 2026-05-05 19:07 | 45.08664 | -75.53960 | 38640 ft | 550 kts | 72° |
| 2026-05-05 19:08 | 45.11102 | -75.43710 | 38638 ft | 550 kts | 72° |
| 2026-05-05 19:08 | 45.13534 | -75.33426 | 38630 ft | 550 kts | 72° |
| 2026-05-05 19:09 | 45.15965 | -75.23112 | 38623 ft | 549 kts | 72° |
| 2026-05-05 19:09 | 45.18347 | -75.12947 | 38622 ft | 549 kts | 72° |
| 2026-05-05 19:10 | 45.20772 | -75.02556 | 38626 ft | 549 kts | 72° |
| 2026-05-05 19:10 | 45.23143 | -74.92347 | 38616 ft | 548 kts | 72° |
| 2026-05-05 19:11 | 45.26387 | -74.82596 | 38641 ft | 545 kts | 51° |
| 2026-05-05 19:11 | 45.31392 | -74.74656 | 38602 ft | 543 kts | 43° |
| 2026-05-05 19:12 | 45.36570 | -74.66910 | 38603 ft | 543 kts | 44° |
| 2026-05-05 19:12 | 45.41799 | -74.59019 | 38599 ft | 543 kts | 44° |
| 2026-05-05 19:13 | 45.46951 | -74.51253 | 38597 ft | 543 kts | 44° |
| 2026-05-05 19:13 | 45.52143 | -74.43384 | 38593 ft | 543 kts | 44° |
| 2026-05-05 19:14 | 45.57319 | -74.35527 | 38593 ft | 544 kts | 44° |
| 2026-05-05 19:14 | 45.62495 | -74.27642 | 38592 ft | 543 kts | 44° |
| 2026-05-05 19:15 | 45.67659 | -74.19755 | 38591 ft | 544 kts | 44° |
| 2026-05-05 19:15 | 45.71972 | -74.13150 | 38588 ft | 544 kts | 44° |
| 2026-05-05 19:16 | 45.77170 | -74.05168 | 38589 ft | 544 kts | 44° |
| 2026-05-05 19:16 | 45.82350 | -73.97192 | 38586 ft | 545 kts | 44° |
| 2026-05-05 19:17 | 45.87489 | -73.89252 | 38586 ft | 545 kts | 44° |
| 2026-05-05 19:17 | 45.92619 | -73.81305 | 38587 ft | 545 kts | 44° |
| 2026-05-05 19:18 | 45.97784 | -73.73280 | 38583 ft | 546 kts | 44° |
| 2026-05-05 19:18 | 46.02938 | -73.65250 | 38581 ft | 545 kts | 44° |
| 2026-05-05 19:19 | 46.08045 | -73.57268 | 38584 ft | 545 kts | 44° |
| 2026-05-05 19:19 | 46.13189 | -73.49204 | 38578 ft | 545 kts | 44° |
| 2026-05-05 19:20 | 46.18331 | -73.41121 | 38576 ft | 545 kts | 44° |
| 2026-05-05 19:20 | 46.23159 | -73.32732 | 38570 ft | 548 kts | 51° |
| 2026-05-05 19:21 | 46.27653 | -73.23830 | 38575 ft | 548 kts | 51° |
| 2026-05-05 19:21 | 46.32196 | -73.14952 | 38573 ft | 547 kts | 51° |
| 2026-05-05 19:22 | 46.36696 | -73.06048 | 38574 ft | 548 kts | 52° |
| 2026-05-05 19:22 | 46.41176 | -72.97197 | 38576 ft | 547 kts | 52° |
| 2026-05-05 19:23 | 46.45677 | -72.88257 | 38574 ft | 548 kts | 52° |
| 2026-05-05 19:23 | 46.50167 | -72.79317 | 38576 ft | 548 kts | 52° |
| 2026-05-05 19:24 | 46.54621 | -72.70420 | 38575 ft | 548 kts | 52° |
| 2026-05-05 19:24 | 46.59094 | -72.61454 | 38584 ft | 547 kts | 52° |
| 2026-05-05 19:25 | 46.63567 | -72.52462 | 38586 ft | 548 kts | 52° |
| 2026-05-05 19:25 | 46.68021 | -72.43476 | 38585 ft | 548 kts | 52° |
| 2026-05-05 19:26 | 46.72478 | -72.34459 | 38588 ft | 548 kts | 52° |
| 2026-05-05 19:26 | 46.76859 | -72.25563 | 38586 ft | 549 kts | 52° |
| 2026-05-05 19:27 | 46.81375 | -72.16364 | 38588 ft | 549 kts | 52° |
| 2026-05-05 19:27 | 46.85830 | -72.07260 | 38593 ft | 549 kts | 53° |
| 2026-05-05 19:28 | 46.90236 | -71.98229 | 38600 ft | 549 kts | 53° |
| 2026-05-05 19:28 | 46.94669 | -71.89111 | 38595 ft | 548 kts | 53° |
| 2026-05-05 19:29 | 46.99073 | -71.80021 | 38609 ft | 548 kts | 53° |
| 2026-05-05 19:29 | 47.03477 | -71.70904 | 38616 ft | 547 kts | 53° |
| 2026-05-05 19:30 | 47.07865 | -71.61787 | 38610 ft | 547 kts | 53° |
| 2026-05-05 19:30 | 47.12241 | -71.52668 | 38602 ft | 546 kts | 53° |
| 2026-05-05 19:31 | 47.16597 | -71.43560 | 38605 ft | 546 kts | 53° |
| 2026-05-05 19:31 | 47.20961 | -71.34404 | 38629 ft | 546 kts | 53° |
| 2026-05-05 19:32 | 47.25309 | -71.25252 | 38635 ft | 545 kts | 53° |
| 2026-05-05 19:32 | 47.29652 | -71.16079 | 38625 ft | 545 kts | 54° |
| 2026-05-05 19:33 | 47.33975 | -71.06920 | 38616 ft | 544 kts | 54° |
| 2026-05-05 19:33 | 47.38287 | -70.97751 | 38600 ft | 543 kts | 54° |
| 2026-05-05 19:34 | 47.42558 | -70.88642 | 38591 ft | 543 kts | 54° |
| 2026-05-05 19:35 | 47.48987 | -70.74870 | 38583 ft | 542 kts | 54° |
| 2026-05-05 19:35 | 47.53276 | -70.65645 | 38578 ft | 542 kts | 54° |
| 2026-05-05 19:36 | 47.57531 | -70.56462 | 38579 ft | 544 kts | 54° |
| 2026-05-05 19:36 | 47.61810 | -70.47196 | 38576 ft | 545 kts | 54° |
| 2026-05-05 19:37 | 47.66078 | -70.37921 | 38560 ft | 545 kts | 54° |
| 2026-05-05 19:37 | 47.70340 | -70.28629 | 38561 ft | 544 kts | 54° |
| 2026-05-05 19:38 | 47.74602 | -70.19306 | 38562 ft | 544 kts | 54° |
| 2026-05-05 19:38 | 47.78825 | -70.10036 | 38561 ft | 544 kts | 54° |
| 2026-05-05 19:39 | 47.83073 | -70.00681 | 38564 ft | 543 kts | 55° |
| 2026-05-05 19:39 | 47.87329 | -69.91274 | 38561 ft | 543 kts | 55° |
| 2026-05-05 19:40 | 47.91535 | -69.81947 | 38561 ft | 542 kts | 55° |
| 2026-05-05 19:40 | 47.95719 | -69.72636 | 38564 ft | 542 kts | 55° |
| 2026-05-05 19:41 | 47.99906 | -69.63286 | 38566 ft | 541 kts | 56° |
| 2026-05-05 19:41 | 48.04085 | -69.53923 | 38563 ft | 540 kts | 56° |
| 2026-05-05 19:42 | 48.08217 | -69.44632 | 38561 ft | 540 kts | 56° |
| 2026-05-05 19:42 | 48.12370 | -69.35263 | 38555 ft | 539 kts | 56° |
| 2026-05-05 19:42 | 48.14232 | -69.30404 | 38587 ft | 538 kts | 68° |
| 2026-05-05 19:43 | 48.15463 | -69.25128 | 38579 ft | 537 kts | 79° |
| 2026-05-05 19:43 | 48.17162 | -69.14236 | 38560 ft | 537 kts | 79° |
| 2026-05-05 19:44 | 48.18852 | -69.03331 | 38566 ft | 537 kts | 78° |
| 2026-05-05 19:44 | 48.20535 | -68.92433 | 38572 ft | 536 kts | 79° |
| 2026-05-05 19:45 | 48.22191 | -68.81584 | 38574 ft | 536 kts | 79° |
| 2026-05-05 19:45 | 48.23853 | -68.70675 | 38566 ft | 536 kts | 79° |
| 2026-05-05 19:46 | 48.25495 | -68.59778 | 38564 ft | 535 kts | 79° |
| 2026-05-05 19:46 | 48.27145 | -68.48788 | 38573 ft | 535 kts | 79° |
| 2026-05-05 19:47 | 48.28767 | -68.37885 | 38563 ft | 535 kts | 79° |
| 2026-05-05 19:47 | 48.30370 | -68.27044 | 38562 ft | 534 kts | 79° |
| 2026-05-05 19:48 | 48.31970 | -68.16142 | 38563 ft | 535 kts | 79° |
| 2026-05-05 19:48 | 48.33564 | -68.05210 | 38559 ft | 535 kts | 80° |
| 2026-05-05 19:49 | 48.35144 | -67.94292 | 38556 ft | 535 kts | 80° |
| 2026-05-05 19:49 | 48.36716 | -67.83355 | 38561 ft | 535 kts | 80° |
| 2026-05-05 19:50 | 48.38275 | -67.72424 | 38573 ft | 535 kts | 80° |
| 2026-05-05 19:50 | 48.39825 | -67.61479 | 38572 ft | 535 kts | 80° |
| 2026-05-05 19:51 | 48.41367 | -67.50509 | 38571 ft | 536 kts | 81° |
| 2026-05-05 19:51 | 48.42900 | -67.39532 | 38567 ft | 536 kts | 81° |
| 2026-05-05 19:52 | 48.44417 | -67.28572 | 38568 ft | 536 kts | 81° |
| 2026-05-05 19:52 | 48.45931 | -67.17568 | 38569 ft | 536 kts | 81° |
| 2026-05-05 19:53 | 48.47423 | -67.06626 | 38567 ft | 536 kts | 81° |
| 2026-05-05 19:53 | 48.48916 | -66.95609 | 38575 ft | 536 kts | 81° |
| 2026-05-05 19:54 | 48.50396 | -66.84594 | 38573 ft | 537 kts | 81° |
| 2026-05-05 19:54 | 48.51622 | -66.75406 | 38580 ft | 537 kts | 81° |
| 2026-05-05 19:55 | 48.53085 | -66.64359 | 38584 ft | 537 kts | 81° |
| 2026-05-05 19:55 | 48.54539 | -66.53301 | 38586 ft | 538 kts | 81° |
| 2026-05-05 19:56 | 48.55986 | -66.42206 | 38582 ft | 538 kts | 81° |
| 2026-05-05 19:56 | 48.57423 | -66.31099 | 38584 ft | 539 kts | 81° |
| 2026-05-05 19:57 | 48.58854 | -66.19956 | 38587 ft | 540 kts | 81° |
| 2026-05-05 19:57 | 48.60263 | -66.08882 | 38599 ft | 540 kts | 81° |
| 2026-05-05 19:58 | 48.61671 | -65.97739 | 38606 ft | 539 kts | 81° |
| 2026-05-05 19:58 | 48.63065 | -65.86611 | 38609 ft | 538 kts | 81° |
| 2026-05-05 19:59 | 48.64445 | -65.75500 | 38607 ft | 536 kts | 81° |
| 2026-05-05 19:59 | 48.65808 | -65.64431 | 38608 ft | 535 kts | 81° |
| 2026-05-05 20:00 | 48.67154 | -65.53424 | 38611 ft | 534 kts | 81° |
| 2026-05-05 20:00 | 48.68490 | -65.42394 | 38605 ft | 531 kts | 81° |
| 2026-05-05 20:01 | 48.69805 | -65.31445 | 38605 ft | 529 kts | 81° |
| 2026-05-05 20:01 | 48.71111 | -65.20485 | 38607 ft | 527 kts | 81° |
| 2026-05-05 20:02 | 48.72401 | -65.09567 | 38603 ft | 526 kts | 81° |
| 2026-05-05 20:02 | 48.73680 | -64.98640 | 38608 ft | 525 kts | 82° |
| 2026-05-05 20:03 | 48.74936 | -64.87825 | 38609 ft | 525 kts | 82° |
| 2026-05-05 20:03 | 48.76196 | -64.76880 | 38601 ft | 525 kts | 82° |
| 2026-05-05 20:04 | 48.77443 | -64.65953 | 38605 ft | 527 kts | 82° |
| 2026-05-05 20:04 | 48.78684 | -64.54985 | 38610 ft | 528 kts | 82° |
| 2026-05-05 20:05 | 48.79917 | -64.43987 | 38620 ft | 530 kts | 82° |
| 2026-05-05 20:05 | 48.81135 | -64.33024 | 38620 ft | 530 kts | 82° |
| 2026-05-05 20:06 | 48.82354 | -64.21953 | 38620 ft | 532 kts | 82° |
| 2026-05-05 20:06 | 48.83563 | -64.10869 | 38641 ft | 532 kts | 82° |
| 2026-05-05 20:07 | 48.84762 | -63.99769 | 38653 ft | 533 kts | 82° |
| 2026-05-05 20:07 | 48.85954 | -63.88636 | 38663 ft | 535 kts | 82° |
| 2026-05-05 20:08 | 48.87137 | -63.77482 | 38668 ft | 535 kts | 82° |
| 2026-05-05 20:08 | 48.88302 | -63.66392 | 38669 ft | 534 kts | 82° |
| 2026-05-05 20:09 | 48.89460 | -63.55260 | 38672 ft | 533 kts | 82° |
| 2026-05-05 20:09 | 48.90605 | -63.44146 | 38676 ft | 532 kts | 82° |
| 2026-05-05 20:10 | 48.91738 | -63.33042 | 38675 ft | 531 kts | 82° |
| 2026-05-05 20:10 | 48.92859 | -63.21938 | 38680 ft | 530 kts | 82° |
| 2026-05-05 20:11 | 48.93967 | -63.10865 | 38690 ft | 529 kts | 82° |
| 2026-05-05 20:11 | 48.95055 | -62.99874 | 38691 ft | 528 kts | 82° |
| 2026-05-05 20:12 | 48.96137 | -62.88833 | 38695 ft | 527 kts | 82° |
| 2026-05-05 20:12 | 48.97207 | -62.77807 | 38699 ft | 526 kts | 82° |
| 2026-05-05 20:13 | 48.98266 | -62.66769 | 38712 ft | 525 kts | 83° |
| 2026-05-05 20:13 | 48.99312 | -62.55768 | 38716 ft | 524 kts | 83° |
| 2026-05-05 20:14 | 49.00344 | -62.44792 | 38721 ft | 523 kts | 83° |
| 2026-05-05 20:14 | 49.01365 | -62.33821 | 38730 ft | 523 kts | 83° |
| 2026-05-05 20:15 | 49.02370 | -62.22899 | 38735 ft | 524 kts | 83° |
| 2026-05-05 20:15 | 49.03379 | -62.11824 | 38734 ft | 524 kts | 83° |
| 2026-05-05 20:16 | 49.04366 | -62.00870 | 38743 ft | 525 kts | 83° |
| 2026-05-05 20:16 | 49.05349 | -61.89832 | 38749 ft | 526 kts | 83° |
| 2026-05-05 20:17 | 49.06326 | -61.78748 | 38752 ft | 527 kts | 83° |
| 2026-05-05 20:17 | 49.07294 | -61.67638 | 38756 ft | 528 kts | 83° |
| 2026-05-05 20:18 | 49.08252 | -61.56510 | 38765 ft | 529 kts | 83° |
| 2026-05-05 20:18 | 49.09202 | -61.45361 | 38772 ft | 530 kts | 83° |
| 2026-05-05 20:19 | 49.10135 | -61.34269 | 38770 ft | 531 kts | 83° |
| 2026-05-05 20:19 | 49.11065 | -61.23082 | 38778 ft | 532 kts | 83° |
| 2026-05-05 20:20 | 49.11986 | -61.11875 | 38782 ft | 532 kts | 83° |
| 2026-05-05 20:20 | 49.12898 | -61.00638 | 38787 ft | 532 kts | 83° |
| 2026-05-05 20:21 | 49.13798 | -60.89407 | 38787 ft | 533 kts | 83° |
| 2026-05-05 20:21 | 49.14687 | -60.78165 | 38797 ft | 533 kts | 83° |
| 2026-05-05 20:22 | 49.15566 | -60.66920 | 38803 ft | 534 kts | 83° |
| 2026-05-05 20:22 | 49.16437 | -60.55632 | 38804 ft | 535 kts | 83° |
| 2026-05-05 20:23 | 49.17297 | -60.44348 | 38811 ft | 535 kts | 83° |
| 2026-05-05 20:23 | 49.18147 | -60.33029 | 38816 ft | 536 kts | 83° |
| 2026-05-05 20:24 | 49.18982 | -60.21769 | 38821 ft | 537 kts | 83° |
| 2026-05-05 20:24 | 49.19813 | -60.10412 | 38821 ft | 537 kts | 83° |
| 2026-05-05 20:25 | 49.20631 | -59.99068 | 38824 ft | 537 kts | 83° |
| 2026-05-05 20:25 | 49.21440 | -59.87706 | 38833 ft | 537 kts | 83° |
| 2026-05-05 20:26 | 49.22236 | -59.76341 | 38834 ft | 537 kts | 83° |
| 2026-05-05 20:26 | 49.23023 | -59.64968 | 38840 ft | 537 kts | 83° |
| 2026-05-05 20:27 | 49.23798 | -59.53585 | 38841 ft | 537 kts | 83° |
| 2026-05-05 20:27 | 49.24562 | -59.42202 | 38845 ft | 537 kts | 83° |
| 2026-05-05 20:28 | 49.25308 | -59.30918 | 38850 ft | 536 kts | 83° |
| 2026-05-05 20:28 | 49.26047 | -59.19578 | 38852 ft | 535 kts | 83° |
| 2026-05-05 20:29 | 49.26772 | -59.08269 | 38857 ft | 534 kts | 83° |
| 2026-05-05 20:29 | 49.27486 | -58.96968 | 38861 ft | 532 kts | 83° |
| 2026-05-05 20:30 | 49.28187 | -58.85680 | 38865 ft | 531 kts | 84° |
| 2026-05-05 20:30 | 49.28877 | -58.74413 | 38864 ft | 530 kts | 84° |
| 2026-05-05 20:31 | 49.29552 | -58.63175 | 38874 ft | 529 kts | 84° |
| 2026-05-05 20:31 | 49.30216 | -58.51958 | 38870 ft | 528 kts | 84° |
| 2026-05-05 20:32 | 49.30864 | -58.40839 | 38873 ft | 527 kts | 84° |
| 2026-05-05 20:32 | 49.31503 | -58.29666 | 38872 ft | 525 kts | 84° |
| 2026-05-05 20:33 | 49.32131 | -58.18497 | 38869 ft | 525 kts | 84° |
| 2026-05-05 20:33 | 49.32746 | -58.07366 | 38877 ft | 524 kts | 84° |
| 2026-05-05 20:34 | 49.33351 | -57.96237 | 38864 ft | 523 kts | 84° |
| 2026-05-05 20:34 | 49.33943 | -57.85140 | 38859 ft | 522 kts | 84° |
| 2026-05-05 20:35 | 49.34521 | -57.74099 | 38856 ft | 521 kts | 84° |
| 2026-05-05 20:35 | 49.35090 | -57.63021 | 38857 ft | 521 kts | 84° |
| 2026-05-05 20:36 | 49.35650 | -57.51922 | 38861 ft | 522 kts | 85° |
| 2026-05-05 20:36 | 49.36199 | -57.40813 | 38859 ft | 522 kts | 85° |
| 2026-05-05 20:37 | 49.36739 | -57.29691 | 38856 ft | 523 kts | 85° |
| 2026-05-05 20:37 | 49.37268 | -57.18543 | 38847 ft | 524 kts | 85° |
| 2026-05-05 20:38 | 49.37788 | -57.07377 | 38846 ft | 525 kts | 85° |
| 2026-05-05 20:38 | 49.38295 | -56.96260 | 38839 ft | 526 kts | 85° |
| 2026-05-05 20:39 | 49.38795 | -56.85044 | 38838 ft | 527 kts | 85° |
| 2026-05-05 20:39 | 49.39285 | -56.73801 | 38835 ft | 528 kts | 85° |
| 2026-05-05 20:40 | 49.39762 | -56.62610 | 38835 ft | 529 kts | 85° |
| 2026-05-05 20:40 | 49.40237 | -56.51225 | 38833 ft | 531 kts | 85° |
| 2026-05-05 20:41 | 49.40620 | -56.41822 | 38830 ft | 531 kts | 86° |
| 2026-05-05 20:41 | 49.41072 | -56.30490 | 38832 ft | 532 kts | 86° |
| 2026-05-05 20:42 | 49.41513 | -56.19137 | 38829 ft | 533 kts | 86° |
| 2026-05-05 20:42 | 49.41948 | -56.07663 | 38834 ft | 534 kts | 86° |
| 2026-05-05 20:43 | 49.42366 | -55.96334 | 38831 ft | 534 kts | 86° |
| 2026-05-05 20:43 | 49.42775 | -55.84925 | 38830 ft | 535 kts | 86° |
| 2026-05-05 20:44 | 49.43173 | -55.73542 | 38833 ft | 535 kts | 86° |
| 2026-05-05 20:44 | 49.43561 | -55.62108 | 38833 ft | 536 kts | 86° |
| 2026-05-05 20:45 | 49.44122 | -55.44941 | 38835 ft | 536 kts | 86° |
| 2026-05-05 20:45 | 49.44482 | -55.33495 | 38833 ft | 536 kts | 86° |
| 2026-05-05 20:46 | 49.44831 | -55.22043 | 38839 ft | 535 kts | 86° |
| 2026-05-05 20:46 | 49.45165 | -55.10690 | 38838 ft | 535 kts | 86° |
| 2026-05-05 20:47 | 49.45491 | -54.99278 | 38836 ft | 534 kts | 87° |
| 2026-05-05 20:47 | 49.45804 | -54.87890 | 38837 ft | 533 kts | 87° |
| 2026-05-05 20:48 | 49.46106 | -54.76495 | 38842 ft | 533 kts | 87° |
| 2026-05-05 20:48 | 49.46396 | -54.65121 | 38848 ft | 531 kts | 87° |
| 2026-05-05 20:49 | 49.46675 | -54.53781 | 38854 ft | 530 kts | 87° |
| 2026-05-05 20:49 | 49.46942 | -54.42449 | 38863 ft | 530 kts | 87° |
| 2026-05-05 20:50 | 49.47074 | -54.36641 | 38868 ft | 529 kts | 87° |
| 2026-05-05 20:50 | 49.47270 | -54.27815 | 38870 ft | 529 kts | 88° |
| 2026-05-05 20:51 | 49.47510 | -54.16568 | 38875 ft | 529 kts | 88° |
| 2026-05-05 20:51 | 49.47740 | -54.05266 | 38875 ft | 528 kts | 88° |
| 2026-05-05 20:52 | 49.47959 | -53.93986 | 38873 ft | 527 kts | 88° |
| 2026-05-05 20:52 | 49.48165 | -53.82801 | 38882 ft | 527 kts | 88° |
| 2026-05-05 20:53 | 49.48361 | -53.71540 | 38882 ft | 526 kts | 88° |
| 2026-05-05 20:53 | 49.48546 | -53.60289 | 38885 ft | 526 kts | 88° |
| 2026-05-05 20:54 | 49.48721 | -53.49049 | 38886 ft | 525 kts | 88° |
| 2026-05-05 20:54 | 49.48884 | -53.37822 | 38889 ft | 525 kts | 89° |
| 2026-05-05 20:55 | 49.49036 | -53.26603 | 38891 ft | 524 kts | 89° |
| 2026-05-05 20:55 | 49.49176 | -53.15455 | 38893 ft | 524 kts | 89° |
| 2026-05-05 20:56 | 49.49307 | -53.04252 | 38896 ft | 523 kts | 89° |
| 2026-05-05 20:56 | 49.49426 | -52.93086 | 38898 ft | 523 kts | 89° |
| 2026-05-05 20:57 | 49.49535 | -52.81790 | 38900 ft | 523 kts | 89° |
| 2026-05-05 20:57 | 49.49633 | -52.70609 | 38906 ft | 523 kts | 89° |
| 2026-05-05 20:58 | 49.49720 | -52.59427 | 38904 ft | 523 kts | 90° |
| 2026-05-05 20:58 | 49.49796 | -52.48246 | 38906 ft | 523 kts | 90° |
| 2026-05-05 20:59 | 49.49861 | -52.37109 | 39068 ft | 523 kts | 90° |
| 2026-05-05 20:59 | 49.49890 | -52.31517 | 39264 ft | 523 kts | 90° |
| 2026-05-05 20:59 | 49.49915 | -52.25925 | 39454 ft | 523 kts | 90° |
| 2026-05-05 21:00 | 49.49939 | -52.20330 | 39634 ft | 523 kts | 90° |
| 2026-05-05 21:00 | 49.49959 | -52.14735 | 39812 ft | 523 kts | 90° |
| 2026-05-05 21:00 | 49.50044 | -52.03489 | 39915 ft | 528 kts | 84° |
| 2026-05-05 21:01 | 49.50666 | -51.97958 | 39943 ft | 526 kts | 72° |
| 2026-05-05 21:01 | 49.51874 | -51.92763 | 39924 ft | 525 kts | 67° |
| 2026-05-05 21:01 | 49.54601 | -51.82354 | 39925 ft | 523 kts | 67° |
| 2026-05-05 21:02 | 49.57280 | -51.71958 | 39921 ft | 523 kts | 67° |
| 2026-05-05 21:02 | 49.59972 | -51.61518 | 39922 ft | 523 kts | 67° |
| 2026-05-05 21:03 | 49.62653 | -51.51052 | 39926 ft | 525 kts | 67° |
| 2026-05-05 21:03 | 49.65332 | -51.40551 | 39920 ft | 526 kts | 67° |
| 2026-05-05 21:04 | 49.67986 | -51.30101 | 39927 ft | 527 kts | 68° |
| 2026-05-05 21:04 | 49.70661 | -51.19515 | 39928 ft | 528 kts | 68° |
| 2026-05-05 21:05 | 49.73322 | -51.08940 | 39932 ft | 528 kts | 68° |
| 2026-05-05 21:05 | 49.75968 | -50.98370 | 39936 ft | 528 kts | 68° |
| 2026-05-05 21:06 | 49.78612 | -50.87758 | 39931 ft | 528 kts | 68° |
| 2026-05-05 21:06 | 49.81245 | -50.77142 | 39932 ft | 528 kts | 68° |
| 2026-05-05 21:07 | 49.83865 | -50.66526 | 39932 ft | 527 kts | 68° |
| 2026-05-05 21:07 | 49.86471 | -50.55919 | 39933 ft | 527 kts | 68° |
| 2026-05-05 21:08 | 49.89066 | -50.45305 | 39936 ft | 527 kts | 68° |
| 2026-05-05 21:08 | 49.91650 | -50.34682 | 39938 ft | 526 kts | 68° |
| 2026-05-05 21:09 | 49.94221 | -50.24062 | 39938 ft | 525 kts | 68° |
| 2026-05-05 21:09 | 49.96778 | -50.13449 | 39940 ft | 524 kts | 68° |
| 2026-05-05 21:10 | 49.99317 | -50.02861 | 39937 ft | 522 kts | 69° |
| 2026-05-05 21:10 | 50.01179 | -49.92041 | 39942 ft | 522 kts | 77° |
| 2026-05-05 21:11 | 50.02737 | -49.81009 | 39943 ft | 522 kts | 77° |
| 2026-05-05 21:11 | 50.04342 | -49.69978 | 39942 ft | 523 kts | 77° |
| 2026-05-05 21:12 | 50.05900 | -49.58935 | 39947 ft | 523 kts | 77° |
| 2026-05-05 21:12 | 50.07472 | -49.47875 | 39946 ft | 523 kts | 77° |
| 2026-05-05 21:13 | 50.09019 | -49.36816 | 39945 ft | 522 kts | 77° |
| 2026-05-05 21:13 | 50.10561 | -49.25759 | 39954 ft | 522 kts | 77° |
| 2026-05-05 21:14 | 50.12090 | -49.14689 | 39952 ft | 523 kts | 77° |
| 2026-05-05 21:14 | 50.13612 | -49.03596 | 39954 ft | 523 kts | 77° |
| 2026-05-05 21:15 | 50.15123 | -48.92496 | 39957 ft | 523 kts | 77° |
| 2026-05-05 21:15 | 50.16623 | -48.81390 | 39961 ft | 523 kts | 78° |
| 2026-05-05 21:16 | 50.18113 | -48.70279 | 39964 ft | 524 kts | 78° |
| 2026-05-05 21:16 | 50.19592 | -48.59159 | 39966 ft | 524 kts | 78° |
| 2026-05-05 21:17 | 50.21056 | -48.48069 | 39967 ft | 524 kts | 78° |
| 2026-05-05 21:17 | 50.22517 | -48.36908 | 39969 ft | 524 kts | 78° |
| 2026-05-05 21:18 | 50.23969 | -48.25735 | 39972 ft | 524 kts | 78° |
| 2026-05-05 21:18 | 50.25408 | -48.14566 | 39975 ft | 524 kts | 78° |
| 2026-05-05 21:19 | 50.26838 | -48.03375 | 39978 ft | 524 kts | 79° |
| 2026-05-05 21:19 | 50.28247 | -47.92270 | 39982 ft | 524 kts | 79° |
| 2026-05-05 21:20 | 50.29655 | -47.81076 | 39986 ft | 523 kts | 79° |
| 2026-05-05 21:20 | 50.31048 | -47.69902 | 39986 ft | 523 kts | 79° |
| 2026-05-05 21:21 | 50.32432 | -47.58715 | 39990 ft | 523 kts | 79° |
| 2026-05-05 21:21 | 50.33796 | -47.47602 | 39991 ft | 523 kts | 79° |
| 2026-05-05 21:22 | 50.35162 | -47.36373 | 39997 ft | 523 kts | 79° |
| 2026-05-05 21:22 | 50.36286 | -47.27060 | 39996 ft | 523 kts | 79° |
| 2026-05-05 21:23 | 50.37627 | -47.15865 | 39997 ft | 523 kts | 79° |
| 2026-05-05 21:23 | 50.39180 | -47.02776 | 40001 ft | 523 kts | 80° |
| 2026-05-05 21:24 | 50.40274 | -46.93470 | 40004 ft | 523 kts | 80° |
| 2026-05-05 21:24 | 50.41583 | -46.82254 | 40007 ft | 523 kts | 80° |
| 2026-05-05 21:25 | 50.42880 | -46.71042 | 40010 ft | 522 kts | 80° |
| 2026-05-05 21:25 | 50.44168 | -46.59810 | 40011 ft | 522 kts | 80° |
| 2026-05-05 21:26 | 50.45433 | -46.48668 | 40010 ft | 522 kts | 80° |
| 2026-05-05 21:26 | 50.46697 | -46.37443 | 40015 ft | 521 kts | 81° |
| 2026-05-05 21:27 | 50.47949 | -46.26225 | 40013 ft | 521 kts | 81° |
| 2026-05-05 21:27 | 50.49189 | -46.15013 | 40012 ft | 521 kts | 81° |
| 2026-05-05 21:28 | 50.50417 | -46.03804 | 40017 ft | 521 kts | 81° |
| 2026-05-05 21:28 | 50.51634 | -45.92586 | 40019 ft | 520 kts | 81° |
| 2026-05-05 21:29 | 50.52840 | -45.81366 | 40023 ft | 521 kts | 81° |
| 2026-05-05 21:29 | 50.54038 | -45.70113 | 40023 ft | 522 kts | 81° |
| 2026-05-05 21:30 | 50.55227 | -45.58846 | 40024 ft | 522 kts | 81° |
| 2026-05-05 21:30 | 50.56403 | -45.47588 | 40025 ft | 522 kts | 81° |
| 2026-05-05 21:31 | 50.57567 | -45.36337 | 40028 ft | 521 kts | 81° |
| 2026-05-05 21:31 | 50.58721 | -45.25063 | 40033 ft | 522 kts | 82° |
| 2026-05-05 21:32 | 50.59864 | -45.13795 | 40032 ft | 522 kts | 82° |
| 2026-05-05 21:32 | 50.60998 | -45.02499 | 40035 ft | 522 kts | 82° |
| 2026-05-05 21:33 | 50.62122 | -44.91194 | 40037 ft | 523 kts | 82° |
| 2026-05-05 21:33 | 50.63234 | -44.79887 | 40039 ft | 523 kts | 82° |
| 2026-05-05 21:34 | 50.64336 | -44.68564 | 40044 ft | 522 kts | 82° |
| 2026-05-05 21:34 | 50.65418 | -44.57331 | 40047 ft | 523 kts | 82° |
| 2026-05-05 21:35 | 50.66500 | -44.45982 | 40044 ft | 522 kts | 82° |
| 2026-05-05 21:35 | 50.67568 | -44.34664 | 40053 ft | 521 kts | 82° |
| 2026-05-05 21:36 | 50.68624 | -44.23347 | 40052 ft | 521 kts | 82° |
| 2026-05-05 21:36 | 50.69666 | -44.12052 | 40055 ft | 521 kts | 82° |
| 2026-05-05 21:37 | 50.70699 | -44.00741 | 40056 ft | 521 kts | 83° |
| 2026-05-05 21:37 | 50.71720 | -43.89425 | 40061 ft | 521 kts | 83° |
| 2026-05-05 21:38 | 50.72732 | -43.78089 | 40063 ft | 521 kts | 83° |
| 2026-05-05 21:38 | 50.73733 | -43.66749 | 40069 ft | 521 kts | 83° |
| 2026-05-05 21:39 | 50.74715 | -43.55501 | 40072 ft | 521 kts | 83° |
| 2026-05-05 21:39 | 50.75694 | -43.44146 | 40069 ft | 521 kts | 83° |
| 2026-05-05 21:40 | 50.76661 | -43.32806 | 40078 ft | 521 kts | 83° |
| 2026-05-05 21:40 | 50.77618 | -43.21445 | 40081 ft | 521 kts | 83° |
| 2026-05-05 21:41 | 50.78563 | -43.10097 | 40082 ft | 521 kts | 84° |
| 2026-05-05 21:41 | 50.79497 | -42.98739 | 40083 ft | 521 kts | 84° |
| 2026-05-05 21:42 | 50.80420 | -42.87383 | 40091 ft | 521 kts | 84° |
| 2026-05-05 21:42 | 50.81327 | -42.76080 | 40089 ft | 521 kts | 84° |
| 2026-05-05 21:43 | 50.82233 | -42.64642 | 40093 ft | 521 kts | 84° |
| 2026-05-05 21:43 | 50.83121 | -42.53289 | 40095 ft | 520 kts | 84° |
| 2026-05-05 21:44 | 50.83998 | -42.41932 | 40095 ft | 520 kts | 84° |
| 2026-05-05 21:44 | 50.84863 | -42.30588 | 40099 ft | 519 kts | 84° |
| 2026-05-05 21:45 | 50.85710 | -42.19329 | 40101 ft | 518 kts | 84° |
| 2026-05-05 21:45 | 50.86551 | -42.08005 | 40106 ft | 518 kts | 84° |
| 2026-05-05 21:46 | 50.87380 | -41.96692 | 40103 ft | 518 kts | 85° |
| 2026-05-05 21:46 | 50.88199 | -41.85356 | 40107 ft | 517 kts | 85° |
| 2026-05-05 21:47 | 50.89005 | -41.74049 | 40111 ft | 516 kts | 85° |
| 2026-05-05 21:47 | 50.89800 | -41.62737 | 40113 ft | 516 kts | 85° |
| 2026-05-05 21:48 | 50.90582 | -41.51439 | 40115 ft | 516 kts | 85° |
| 2026-05-05 21:48 | 50.91355 | -41.40133 | 40119 ft | 516 kts | 85° |
| 2026-05-05 21:49 | 50.92115 | -41.28835 | 40122 ft | 516 kts | 85° |
| 2026-05-05 21:49 | 50.92867 | -41.17501 | 40124 ft | 517 kts | 85° |
| 2026-05-05 21:50 | 50.93607 | -41.06170 | 40129 ft | 517 kts | 85° |
| 2026-05-05 21:50 | 50.94337 | -40.94830 | 40129 ft | 517 kts | 86° |
| 2026-05-05 21:51 | 50.95057 | -40.83462 | 40134 ft | 518 kts | 86° |
| 2026-05-05 21:51 | 50.95765 | -40.72103 | 40141 ft | 517 kts | 86° |
| 2026-05-05 21:52 | 50.96803 | -40.55129 | 40140 ft | 518 kts | 86° |
| 2026-05-05 21:53 | 50.97485 | -40.43744 | 40141 ft | 518 kts | 86° |
| 2026-05-05 21:53 | 50.98155 | -40.32365 | 40144 ft | 517 kts | 86° |
| 2026-05-05 21:54 | 50.98811 | -40.21050 | 40139 ft | 517 kts | 86° |
| 2026-05-05 21:54 | 50.99462 | -40.09607 | 40145 ft | 518 kts | 86° |
| 2026-05-05 21:55 | 51.00250 | -39.98241 | 40171 ft | 518 kts | 78° |
| 2026-05-05 21:55 | 51.01877 | -39.87065 | 40161 ft | 519 kts | 78° |
| 2026-05-05 21:56 | 51.03475 | -39.75952 | 40160 ft | 519 kts | 78° |
| 2026-05-05 21:56 | 51.05066 | -39.64779 | 40162 ft | 519 kts | 78° |
| 2026-05-05 21:57 | 51.06657 | -39.53578 | 40162 ft | 519 kts | 79° |
| 2026-05-05 21:57 | 51.08227 | -39.42388 | 40165 ft | 518 kts | 78° |
| 2026-05-05 21:58 | 51.09787 | -39.31227 | 40168 ft | 518 kts | 79° |
| 2026-05-05 21:58 | 51.11340 | -39.20001 | 40165 ft | 517 kts | 79° |
| 2026-05-05 21:59 | 51.12878 | -39.08830 | 40161 ft | 516 kts | 79° |
| 2026-05-05 21:59 | 51.14401 | -38.97657 | 40166 ft | 516 kts | 79° |
| 2026-05-05 22:00 | 51.15916 | -38.86473 | 40167 ft | 516 kts | 79° |
| 2026-05-05 22:00 | 51.17412 | -38.75340 | 40170 ft | 517 kts | 79° |
| 2026-05-05 22:01 | 51.18905 | -38.64139 | 40171 ft | 517 kts | 79° |
| 2026-05-05 22:01 | 51.20388 | -38.52925 | 40171 ft | 517 kts | 79° |
| 2026-05-05 22:02 | 51.21860 | -38.41710 | 40172 ft | 517 kts | 79° |
| 2026-05-05 22:02 | 51.23334 | -38.30387 | 40176 ft | 518 kts | 79° |
| 2026-05-05 22:03 | 51.24782 | -38.19177 | 40174 ft | 518 kts | 79° |
| 2026-05-05 22:03 | 51.26223 | -38.07930 | 40186 ft | 517 kts | 80° |
| 2026-05-05 22:04 | 51.27421 | -37.98504 | 40190 ft | 516 kts | 80° |
| 2026-05-05 22:04 | 51.28840 | -37.87262 | 40186 ft | 517 kts | 80° |
| 2026-05-05 22:05 | 51.30477 | -37.74178 | 40184 ft | 516 kts | 80° |
| 2026-05-05 22:05 | 51.31639 | -37.64812 | 40187 ft | 516 kts | 80° |
| 2026-05-05 22:06 | 51.33250 | -37.51716 | 40193 ft | 516 kts | 80° |
| 2026-05-05 22:06 | 51.34403 | -37.42260 | 40189 ft | 516 kts | 80° |
| 2026-05-05 22:07 | 51.35765 | -37.31007 | 40201 ft | 520 kts | 80° |
| 2026-05-05 22:07 | 51.37126 | -37.19673 | 40196 ft | 515 kts | 80° |
| 2026-05-05 22:08 | 51.38461 | -37.08448 | 40197 ft | 512 kts | 80° |
| 2026-05-05 22:08 | 51.39782 | -36.97246 | 40191 ft | 512 kts | 80° |
| 2026-05-05 22:09 | 51.41094 | -36.86026 | 40196 ft | 513 kts | 80° |
| 2026-05-05 22:09 | 51.42397 | -36.74790 | 40196 ft | 513 kts | 80° |
| 2026-05-05 22:10 | 51.43689 | -36.63537 | 40199 ft | 513 kts | 80° |
| 2026-05-05 22:10 | 51.44971 | -36.52282 | 40196 ft | 513 kts | 80° |
| 2026-05-05 22:11 | 51.46232 | -36.41112 | 40199 ft | 512 kts | 80° |
| 2026-05-05 22:11 | 51.47488 | -36.29876 | 40198 ft | 512 kts | 81° |
| 2026-05-05 22:12 | 51.48734 | -36.18634 | 40200 ft | 511 kts | 81° |
| 2026-05-05 22:12 | 51.49970 | -36.07379 | 40197 ft | 511 kts | 81° |
| 2026-05-05 22:13 | 51.51193 | -35.96132 | 40200 ft | 511 kts | 81° |
| 2026-05-05 22:13 | 51.52404 | -35.84896 | 40197 ft | 510 kts | 81° |
| 2026-05-05 22:14 | 51.53596 | -35.73730 | 40201 ft | 510 kts | 81° |
| 2026-05-05 22:14 | 51.54783 | -35.62511 | 40199 ft | 509 kts | 81° |
| 2026-05-05 22:15 | 51.55959 | -35.51281 | 40201 ft | 509 kts | 81° |
| 2026-05-05 22:15 | 51.57123 | -35.40060 | 40197 ft | 509 kts | 81° |
| 2026-05-05 22:16 | 51.58276 | -35.28835 | 40200 ft | 508 kts | 81° |
| 2026-05-05 22:16 | 51.59418 | -35.17611 | 40195 ft | 508 kts | 81° |
| 2026-05-05 22:17 | 51.60548 | -35.06394 | 40199 ft | 508 kts | 81° |
| 2026-05-05 22:17 | 51.61667 | -34.95169 | 40193 ft | 508 kts | 81° |
| 2026-05-05 22:18 | 51.62775 | -34.83945 | 40206 ft | 508 kts | 81° |
| 2026-05-05 22:18 | 51.63872 | -34.72725 | 40183 ft | 507 kts | 81° |
| 2026-05-05 22:19 | 51.64949 | -34.61586 | 40180 ft | 507 kts | 81° |
| 2026-05-05 22:19 | 51.66030 | -34.50291 | 40178 ft | 507 kts | 81° |
| 2026-05-05 22:20 | 51.67086 | -34.39140 | 40182 ft | 507 kts | 81° |
| 2026-05-05 22:20 | 51.68139 | -34.27909 | 40180 ft | 506 kts | 81° |
| 2026-05-05 22:21 | 51.69180 | -34.16683 | 40184 ft | 506 kts | 81° |
| 2026-05-05 22:21 | 51.70210 | -34.05460 | 40169 ft | 506 kts | 81° |
| 2026-05-05 22:22 | 51.71229 | -33.94220 | 40181 ft | 506 kts | 81° |
| 2026-05-05 22:22 | 51.72239 | -33.82977 | 40173 ft | 506 kts | 81° |
| 2026-05-05 22:23 | 51.73236 | -33.71735 | 40170 ft | 506 kts | 81° |
| 2026-05-05 22:23 | 51.74224 | -33.60480 | 40166 ft | 506 kts | 81° |
| 2026-05-05 22:24 | 51.75201 | -33.49224 | 40173 ft | 506 kts | 81° |
| 2026-05-05 22:24 | 51.76161 | -33.38035 | 40170 ft | 506 kts | 81° |
| 2026-05-05 22:25 | 51.77112 | -33.26808 | 40171 ft | 506 kts | 81° |
| 2026-05-05 22:25 | 51.77909 | -33.17305 | 40164 ft | 506 kts | 82° |
| 2026-05-05 22:26 | 51.78847 | -33.06011 | 40167 ft | 507 kts | 82° |
| 2026-05-05 22:26 | 51.79772 | -32.94719 | 40166 ft | 507 kts | 82° |
| 2026-05-05 22:27 | 51.80688 | -32.83408 | 40168 ft | 507 kts | 82° |
| 2026-05-05 22:27 | 51.81591 | -32.72123 | 40169 ft | 506 kts | 82° |
| 2026-05-05 22:28 | 51.82483 | -32.60832 | 40172 ft | 506 kts | 82° |
| 2026-05-05 22:28 | 51.83364 | -32.49533 | 40166 ft | 506 kts | 82° |
| 2026-05-05 22:29 | 51.84234 | -32.38243 | 40172 ft | 506 kts | 82° |
| 2026-05-05 22:29 | 51.85088 | -32.27013 | 40170 ft | 506 kts | 82° |
| 2026-05-05 22:30 | 51.85942 | -32.15638 | 40169 ft | 507 kts | 82° |
| 2026-05-05 22:30 | 51.86775 | -32.04381 | 40170 ft | 507 kts | 82° |
| 2026-05-05 22:31 | 51.87605 | -31.93030 | 40175 ft | 507 kts | 82° |
| 2026-05-05 22:31 | 51.88422 | -31.81702 | 40171 ft | 507 kts | 82° |
| 2026-05-05 22:32 | 51.89228 | -31.70358 | 40188 ft | 505 kts | 84° |
| 2026-05-05 22:32 | 51.90020 | -31.59068 | 40187 ft | 504 kts | 84° |
| 2026-05-05 22:33 | 51.90799 | -31.47797 | 40189 ft | 504 kts | 84° |
| 2026-05-05 22:33 | 51.91569 | -31.36508 | 40186 ft | 504 kts | 84° |
| 2026-05-05 22:34 | 51.92326 | -31.25238 | 40191 ft | 503 kts | 84° |
| 2026-05-05 22:34 | 51.93072 | -31.13968 | 40191 ft | 503 kts | 84° |
| 2026-05-05 22:35 | 51.93808 | -31.02695 | 40195 ft | 503 kts | 84° |
| 2026-05-05 22:35 | 51.94533 | -30.91411 | 40198 ft | 502 kts | 84° |
| 2026-05-05 22:36 | 51.95245 | -30.80152 | 40197 ft | 502 kts | 84° |
| 2026-05-05 22:36 | 51.95946 | -30.68905 | 40199 ft | 502 kts | 84° |
| 2026-05-05 22:37 | 51.96631 | -30.57726 | 40200 ft | 501 kts | 84° |
| 2026-05-05 22:37 | 51.97310 | -30.46483 | 40205 ft | 501 kts | 85° |
| 2026-05-05 22:38 | 51.97979 | -30.35215 | 40208 ft | 501 kts | 85° |
| 2026-05-05 22:38 | 51.98637 | -30.23967 | 40211 ft | 501 kts | 85° |
| 2026-05-05 22:39 | 51.99283 | -30.12718 | 40215 ft | 501 kts | 85° |
| 2026-05-05 22:39 | 51.99925 | -30.01455 | 40217 ft | 500 kts | 83° |
| 2026-05-05 22:40 | 52.01376 | -29.90410 | 40230 ft | 501 kts | 76° |
| 2026-05-05 22:40 | 52.02983 | -29.79407 | 40235 ft | 501 kts | 77° |
| 2026-05-05 22:41 | 52.04540 | -29.68384 | 40234 ft | 501 kts | 76° |
| 2026-05-05 22:41 | 52.06105 | -29.57423 | 40236 ft | 501 kts | 77° |
| 2026-05-05 22:42 | 52.07651 | -29.46385 | 40240 ft | 501 kts | 77° |
| 2026-05-05 22:42 | 52.09201 | -29.35327 | 40239 ft | 501 kts | 77° |
| 2026-05-05 22:43 | 52.10731 | -29.24271 | 40246 ft | 500 kts | 77° |
| 2026-05-05 22:43 | 52.12253 | -29.13226 | 40242 ft | 500 kts | 77° |
| 2026-05-05 22:44 | 52.13762 | -29.02180 | 40249 ft | 499 kts | 77° |
| 2026-05-05 22:44 | 52.15258 | -28.91147 | 40251 ft | 499 kts | 77° |
| 2026-05-05 22:45 | 52.16744 | -28.80106 | 40251 ft | 498 kts | 77° |
| 2026-05-05 22:45 | 52.18209 | -28.69142 | 40252 ft | 499 kts | 77° |
| 2026-05-05 22:46 | 52.19675 | -28.58079 | 40252 ft | 499 kts | 77° |
| 2026-05-05 22:46 | 52.21129 | -28.47022 | 40255 ft | 498 kts | 77° |
| 2026-05-05 22:47 | 52.22572 | -28.35967 | 40258 ft | 498 kts | 77° |
| 2026-05-05 22:47 | 52.24001 | -28.24927 | 40253 ft | 498 kts | 77° |
| 2026-05-05 22:48 | 52.25423 | -28.13861 | 40257 ft | 497 kts | 77° |
| 2026-05-05 22:48 | 52.26830 | -28.02822 | 40260 ft | 496 kts | 77° |
| 2026-05-05 22:49 | 52.27989 | -27.93662 | 40259 ft | 496 kts | 77° |
| 2026-05-05 22:49 | 52.29378 | -27.82599 | 40260 ft | 496 kts | 77° |
| 2026-05-05 22:50 | 52.30756 | -27.71542 | 40265 ft | 496 kts | 77° |
| 2026-05-05 22:50 | 52.32124 | -27.60470 | 40268 ft | 497 kts | 77° |
| 2026-05-05 22:51 | 52.33482 | -27.49391 | 40267 ft | 497 kts | 77° |
| 2026-05-05 22:51 | 52.34829 | -27.38307 | 40269 ft | 496 kts | 77° |
| 2026-05-05 22:52 | 52.36163 | -27.27241 | 40269 ft | 496 kts | 77° |
| 2026-05-05 22:52 | 52.37488 | -27.16156 | 40272 ft | 496 kts | 77° |
| 2026-05-05 22:53 | 52.38804 | -27.05054 | 40267 ft | 497 kts | 77° |
| 2026-05-05 22:53 | 52.40101 | -26.94023 | 40266 ft | 497 kts | 77° |
| 2026-05-05 22:54 | 52.41398 | -26.82894 | 40269 ft | 497 kts | 77° |
| 2026-05-05 22:54 | 52.42684 | -26.71757 | 40277 ft | 497 kts | 77° |
| 2026-05-05 22:55 | 52.43957 | -26.60637 | 40273 ft | 497 kts | 77° |
| 2026-05-05 22:55 | 52.45219 | -26.49518 | 40275 ft | 496 kts | 77° |
| 2026-05-05 22:56 | 52.46471 | -26.38392 | 40275 ft | 496 kts | 77° |
| 2026-05-05 22:56 | 52.47710 | -26.27284 | 40275 ft | 495 kts | 77° |
| 2026-05-05 22:57 | 52.48931 | -26.16230 | 40275 ft | 495 kts | 77° |
| 2026-05-05 22:57 | 52.50149 | -26.05107 | 40271 ft | 495 kts | 77° |
| 2026-05-05 22:58 | 52.51318 | -25.94334 | 40271 ft | 494 kts | 77° |
| 2026-05-05 22:58 | 52.52514 | -25.83215 | 40274 ft | 494 kts | 77° |
| 2026-05-05 22:59 | 52.53700 | -25.72090 | 40268 ft | 494 kts | 77° |
| 2026-05-05 22:59 | 52.54873 | -25.60974 | 40269 ft | 494 kts | 78° |
| 2026-05-05 23:00 | 52.56616 | -25.44267 | 40267 ft | 494 kts | 78° |
| 2026-05-05 23:00 | 52.57764 | -25.33133 | 40270 ft | 494 kts | 78° |
| 2026-05-05 23:01 | 52.58900 | -25.22004 | 40265 ft | 493 kts | 78° |
| 2026-05-05 23:01 | 52.60021 | -25.10916 | 40268 ft | 494 kts | 78° |
| 2026-05-05 23:02 | 52.61138 | -24.99758 | 40265 ft | 494 kts | 78° |
| 2026-05-05 23:02 | 52.62243 | -24.88605 | 40260 ft | 493 kts | 78° |
| 2026-05-05 23:03 | 52.63337 | -24.77463 | 40260 ft | 493 kts | 78° |
| 2026-05-05 23:03 | 52.64420 | -24.66306 | 40250 ft | 494 kts | 78° |
| 2026-05-05 23:04 | 52.65489 | -24.55198 | 40254 ft | 493 kts | 78° |
| 2026-05-05 23:04 | 52.66552 | -24.44024 | 40262 ft | 494 kts | 78° |
| 2026-05-05 23:05 | 52.67607 | -24.32827 | 40263 ft | 494 kts | 78° |
| 2026-05-05 23:05 | 52.68649 | -24.21648 | 40258 ft | 493 kts | 78° |
| 2026-05-05 23:06 | 52.69679 | -24.10473 | 40256 ft | 493 kts | 78° |
| 2026-05-05 23:06 | 52.70694 | -23.99353 | 40260 ft | 493 kts | 78° |
| 2026-05-05 23:07 | 52.71703 | -23.88167 | 40257 ft | 494 kts | 78° |
| 2026-05-05 23:07 | 52.72704 | -23.76958 | 40253 ft | 494 kts | 78° |
| 2026-05-05 23:08 | 52.73694 | -23.65748 | 40250 ft | 493 kts | 78° |
| 2026-05-05 23:08 | 52.74671 | -23.54558 | 40246 ft | 494 kts | 78° |
| 2026-05-05 23:09 | 52.75643 | -23.43302 | 40250 ft | 494 kts | 78° |
| 2026-05-05 23:09 | 52.76602 | -23.32058 | 40256 ft | 495 kts | 78° |
| 2026-05-05 23:10 | 52.77550 | -23.20822 | 40245 ft | 494 kts | 78° |
| 2026-05-05 23:10 | 52.78488 | -23.09570 | 40250 ft | 494 kts | 78° |
| 2026-05-05 23:11 | 52.79408 | -22.98399 | 40248 ft | 494 kts | 78° |
| 2026-05-05 23:11 | 52.80325 | -22.87139 | 40245 ft | 494 kts | 79° |
| 2026-05-05 23:12 | 52.81232 | -22.75862 | 40242 ft | 495 kts | 79° |
| 2026-05-05 23:12 | 52.82129 | -22.64585 | 40242 ft | 495 kts | 79° |
| 2026-05-05 23:13 | 52.83015 | -22.53293 | 40241 ft | 495 kts | 79° |
| 2026-05-05 23:13 | 52.83890 | -22.41998 | 40240 ft | 495 kts | 79° |
| 2026-05-05 23:14 | 52.84749 | -22.30782 | 40238 ft | 495 kts | 79° |
| 2026-05-05 23:14 | 52.85604 | -22.19462 | 40239 ft | 495 kts | 79° |
| 2026-05-05 23:15 | 52.86446 | -22.08161 | 40237 ft | 495 kts | 79° |
| 2026-05-05 23:15 | 52.87281 | -21.96821 | 40237 ft | 495 kts | 79° |
| 2026-05-05 23:16 | 52.88103 | -21.85497 | 40237 ft | 495 kts | 79° |
| 2026-05-05 23:16 | 52.88915 | -21.74158 | 40230 ft | 496 kts | 79° |
| 2026-05-05 23:17 | 52.89715 | -21.62833 | 40232 ft | 495 kts | 80° |
| 2026-05-05 23:17 | 52.90501 | -21.51562 | 40230 ft | 495 kts | 80° |
| 2026-05-05 23:18 | 52.91279 | -21.40228 | 40234 ft | 496 kts | 80° |
| 2026-05-05 23:18 | 52.92048 | -21.28869 | 40233 ft | 495 kts | 80° |
| 2026-05-05 23:19 | 52.92806 | -21.17516 | 40224 ft | 495 kts | 80° |
| 2026-05-05 23:19 | 52.93554 | -21.06142 | 40223 ft | 496 kts | 80° |
| 2026-05-05 23:20 | 52.94290 | -20.94784 | 40226 ft | 495 kts | 80° |
| 2026-05-05 23:20 | 52.95011 | -20.83496 | 40228 ft | 496 kts | 81° |
| 2026-05-05 23:21 | 52.95726 | -20.72114 | 40231 ft | 496 kts | 81° |
| 2026-05-05 23:21 | 52.96430 | -20.60730 | 40236 ft | 496 kts | 81° |
| 2026-05-05 23:22 | 52.97123 | -20.49354 | 40236 ft | 495 kts | 81° |
| 2026-05-05 23:22 | 52.97805 | -20.37975 | 40237 ft | 495 kts | 81° |
| 2026-05-05 23:23 | 52.98475 | -20.26619 | 40234 ft | 495 kts | 81° |
| 2026-05-05 23:23 | 52.99134 | -20.15243 | 40231 ft | 495 kts | 81° |
| 2026-05-05 23:24 | 52.99783 | -20.03857 | 40226 ft | 496 kts | 81° |
| 2026-05-05 23:24 | 53.00147 | -19.92396 | 40225 ft | 497 kts | 85° |
| 2026-05-05 23:25 | 53.00391 | -19.80921 | 40225 ft | 497 kts | 85° |
| 2026-05-05 23:25 | 53.00600 | -19.69441 | 40228 ft | 497 kts | 85° |
| 2026-05-05 23:26 | 53.00810 | -19.57978 | 40225 ft | 497 kts | 85° |
| 2026-05-05 23:26 | 53.01002 | -19.46508 | 40227 ft | 497 kts | 85° |
| 2026-05-05 23:27 | 53.01187 | -19.35008 | 40227 ft | 497 kts | 85° |
| 2026-05-05 23:27 | 53.01359 | -19.23595 | 40227 ft | 497 kts | 85° |
| 2026-05-05 23:28 | 53.01520 | -19.12111 | 40223 ft | 497 kts | 86° |
| 2026-05-05 23:28 | 53.01671 | -19.00613 | 40218 ft | 498 kts | 86° |
| 2026-05-05 23:29 | 53.01811 | -18.89120 | 40219 ft | 499 kts | 86° |
| 2026-05-05 23:29 | 53.01940 | -18.77595 | 40221 ft | 499 kts | 86° |
| 2026-05-05 23:30 | 53.02038 | -18.68023 | 40213 ft | 499 kts | 86° |
| 2026-05-05 23:30 | 53.02164 | -18.54618 | 40218 ft | 499 kts | 86° |
| 2026-05-05 23:31 | 53.02260 | -18.43022 | 40214 ft | 499 kts | 86° |
| 2026-05-05 23:31 | 53.02344 | -18.31559 | 40215 ft | 499 kts | 86° |
| 2026-05-05 23:32 | 53.02417 | -18.19961 | 40209 ft | 498 kts | 87° |
| 2026-05-05 23:32 | 53.02479 | -18.08532 | 40210 ft | 497 kts | 87° |
| 2026-05-05 23:33 | 53.02530 | -17.97042 | 40209 ft | 497 kts | 87° |
| 2026-05-05 23:33 | 53.02570 | -17.85547 | 40208 ft | 498 kts | 87° |
| 2026-05-05 23:34 | 53.02598 | -17.74030 | 40209 ft | 499 kts | 87° |
| 2026-05-05 23:34 | 53.02614 | -17.64440 | 40195 ft | 499 kts | 87° |
| 2026-05-05 23:35 | 53.02622 | -17.52917 | 40198 ft | 499 kts | 88° |
| 2026-05-05 23:35 | 53.02619 | -17.41394 | 40197 ft | 498 kts | 88° |
| 2026-05-05 23:36 | 53.02606 | -17.29874 | 40200 ft | 498 kts | 88° |
| 2026-05-05 23:36 | 53.02580 | -17.18355 | 40201 ft | 499 kts | 88° |
| 2026-05-05 23:37 | 53.02544 | -17.06824 | 40200 ft | 499 kts | 88° |
| 2026-05-05 23:37 | 53.02497 | -16.95279 | 40198 ft | 499 kts | 88° |
| 2026-05-05 23:38 | 53.02438 | -16.83744 | 40198 ft | 500 kts | 88° |
| 2026-05-05 23:38 | 53.02369 | -16.72263 | 40198 ft | 500 kts | 88° |
| 2026-05-05 23:39 | 53.02287 | -16.60620 | 40194 ft | 501 kts | 89° |
| 2026-05-05 23:39 | 53.02196 | -16.49131 | 40196 ft | 501 kts | 89° |
| 2026-05-05 23:40 | 53.02092 | -16.37565 | 40195 ft | 501 kts | 89° |
| 2026-05-05 23:40 | 53.01977 | -16.25990 | 40191 ft | 501 kts | 89° |
| 2026-05-05 23:41 | 53.01852 | -16.14423 | 40190 ft | 500 kts | 89° |
| 2026-05-05 23:41 | 53.01714 | -16.02849 | 40190 ft | 500 kts | 89° |
| 2026-05-05 23:42 | 53.01566 | -15.91289 | 40190 ft | 501 kts | 89° |
| 2026-05-05 23:42 | 53.01406 | -15.79721 | 40186 ft | 500 kts | 89° |
| 2026-05-05 23:43 | 53.01236 | -15.68178 | 40188 ft | 500 kts | 90° |
| 2026-05-05 23:43 | 53.01054 | -15.56634 | 40174 ft | 500 kts | 90° |
| 2026-05-05 23:44 | 53.00861 | -15.45087 | 40186 ft | 500 kts | 90° |
| 2026-05-05 23:44 | 53.00657 | -15.33554 | 40190 ft | 500 kts | 90° |
| 2026-05-05 23:45 | 53.00443 | -15.22087 | 40189 ft | 500 kts | 90° |
| 2026-05-05 23:45 | 53.00217 | -15.10543 | 40186 ft | 500 kts | 90° |
| 2026-05-05 23:46 | 53.00003 | -14.99012 | 40191 ft | 499 kts | 86° |
| 2026-05-05 23:46 | 53.00052 | -14.87475 | 40176 ft | 500 kts | 88° |
| 2026-05-05 23:47 | 53.00072 | -14.75943 | 40183 ft | 499 kts | 88° |
| 2026-05-05 23:47 | 53.00101 | -14.64407 | 40180 ft | 500 kts | 88° |
| 2026-05-05 23:48 | 53.00102 | -14.52862 | 40181 ft | 500 kts | 88° |
| 2026-05-05 23:48 | 53.00105 | -14.41308 | 40177 ft | 500 kts | 88° |
| 2026-05-05 23:49 | 53.00087 | -14.29832 | 40170 ft | 500 kts | 89° |
| 2026-05-05 23:49 | 53.00064 | -14.18255 | 40165 ft | 499 kts | 89° |
| 2026-05-05 23:50 | 53.00019 | -14.06727 | 40170 ft | 500 kts | 91° |
| 2026-05-05 23:50 | 52.99576 | -14.01001 | 40190 ft | 502 kts | 104° |
| 2026-05-05 23:50 | 52.98448 | -13.95502 | 40206 ft | 504 kts | 115° |
| 2026-05-05 23:51 | 52.95125 | -13.85258 | 40168 ft | 505 kts | 118° |
| 2026-05-05 23:51 | 52.91714 | -13.75063 | 40174 ft | 505 kts | 118° |
| 2026-05-05 23:52 | 52.88318 | -13.64873 | 40168 ft | 506 kts | 118° |
| 2026-05-05 23:52 | 52.84897 | -13.54703 | 40169 ft | 505 kts | 119° |
| 2026-05-05 23:53 | 52.81500 | -13.44615 | 40168 ft | 505 kts | 119° |
| 2026-05-05 23:53 | 52.78074 | -13.34500 | 40168 ft | 504 kts | 119° |
| 2026-05-05 23:54 | 52.74642 | -13.24397 | 40168 ft | 504 kts | 119° |
| 2026-05-05 23:54 | 52.71211 | -13.14348 | 40433 ft | 500 kts | 119° |
| 2026-05-05 23:55 | 52.69502 | -13.09355 | 40704 ft | 499 kts | 119° |
| 2026-05-05 23:55 | 52.67797 | -13.04383 | 40969 ft | 498 kts | 119° |
| 2026-05-05 23:55 | 52.66091 | -12.99418 | 41154 ft | 498 kts | 119° |
| 2026-05-05 23:55 | 52.64375 | -12.94436 | 41146 ft | 503 kts | 119° |
| 2026-05-05 23:56 | 52.60890 | -12.84346 | 41150 ft | 512 kts | 119° |
| 2026-05-05 23:56 | 52.57333 | -12.74091 | 41160 ft | 520 kts | 120° |
| 2026-05-05 23:57 | 52.53711 | -12.63690 | 41169 ft | 527 kts | 120° |
| 2026-05-05 23:57 | 52.50054 | -12.53234 | 41159 ft | 528 kts | 120° |
| 2026-05-05 23:58 | 52.46402 | -12.42833 | 41158 ft | 526 kts | 120° |
| 2026-05-05 23:58 | 52.42739 | -12.32446 | 41155 ft | 526 kts | 120° |
| 2026-05-05 23:59 | 52.39067 | -12.22075 | 41156 ft | 526 kts | 120° |
| 2026-05-05 23:59 | 52.35382 | -12.11713 | 41150 ft | 527 kts | 120° |
| 2026-05-06 00:00 | 52.31735 | -12.01497 | 41149 ft | 525 kts | 120° |
| 2026-05-06 00:00 | 52.28046 | -11.91206 | 41149 ft | 524 kts | 120° |
| 2026-05-06 00:01 | 52.24358 | -11.80961 | 41149 ft | 524 kts | 120° |
| 2026-05-06 00:01 | 52.20646 | -11.70690 | 41141 ft | 524 kts | 120° |
| 2026-05-06 00:02 | 52.16931 | -11.60453 | 41145 ft | 525 kts | 121° |
| 2026-05-06 00:02 | 52.13201 | -11.50216 | 41140 ft | 525 kts | 121° |
| 2026-05-06 00:03 | 52.09497 | -11.40092 | 41136 ft | 525 kts | 121° |
| 2026-05-06 00:03 | 52.05731 | -11.29838 | 41132 ft | 524 kts | 121° |
| 2026-05-06 00:04 | 52.02008 | -11.19742 | 41131 ft | 525 kts | 121° |
| 2026-05-06 00:04 | 51.98262 | -11.09625 | 41137 ft | 526 kts | 121° |
| 2026-05-06 00:05 | 51.92602 | -10.94417 | 41133 ft | 526 kts | 121° |
| 2026-05-06 00:06 | 51.88815 | -10.84290 | 41126 ft | 525 kts | 121° |
| 2026-05-06 00:06 | 51.85012 | -10.74161 | 41128 ft | 524 kts | 121° |
| 2026-05-06 00:07 | 51.81220 | -10.64101 | 41124 ft | 523 kts | 121° |
| 2026-05-06 00:07 | 51.77450 | -10.54139 | 41123 ft | 524 kts | 122° |
| 2026-05-06 00:08 | 51.73623 | -10.44066 | 41117 ft | 524 kts | 122° |
| 2026-05-06 00:08 | 51.69818 | -10.34088 | 41116 ft | 524 kts | 122° |
| 2026-05-06 00:09 | 51.65986 | -10.24083 | 41111 ft | 524 kts | 122° |
| 2026-05-06 00:09 | 51.62151 | -10.14106 | 41111 ft | 524 kts | 122° |
| 2026-05-06 00:10 | 51.58307 | -10.04145 | 41104 ft | 523 kts | 122° |
| 2026-05-06 00:10 | 51.54475 | -9.94254 | 41103 ft | 522 kts | 122° |
| 2026-05-06 00:11 | 51.50628 | -9.84362 | 41101 ft | 522 kts | 122° |
| 2026-05-06 00:11 | 51.46792 | -9.74534 | 41101 ft | 521 kts | 122° |
| 2026-05-06 00:12 | 51.42926 | -9.64671 | 41097 ft | 522 kts | 122° |
| 2026-05-06 00:12 | 51.39051 | -9.54820 | 41096 ft | 523 kts | 122° |
| 2026-05-06 00:13 | 51.35183 | -9.45026 | 41094 ft | 522 kts | 123° |
| 2026-05-06 00:13 | 51.31293 | -9.35211 | 41091 ft | 521 kts | 123° |
| 2026-05-06 00:14 | 51.27405 | -9.25441 | 41083 ft | 520 kts | 123° |
| 2026-05-06 00:14 | 51.23511 | -9.15692 | 41084 ft | 520 kts | 123° |
| 2026-05-06 00:15 | 51.19630 | -9.06013 | 41082 ft | 521 kts | 123° |
| 2026-05-06 00:15 | 51.15721 | -8.96299 | 41080 ft | 520 kts | 123° |
| 2026-05-06 00:16 | 51.11517 | -8.86944 | 41076 ft | 520 kts | 130° |
| 2026-05-06 00:16 | 51.06888 | -8.78093 | 41075 ft | 520 kts | 130° |
| 2026-05-06 00:17 | 51.02294 | -8.69203 | 41075 ft | 520 kts | 130° |
| 2026-05-06 00:17 | 50.97705 | -8.60427 | 41076 ft | 520 kts | 130° |
| 2026-05-06 00:18 | 50.93063 | -8.51543 | 41070 ft | 519 kts | 130° |
| 2026-05-06 00:18 | 50.88475 | -8.42807 | 41069 ft | 518 kts | 130° |
| 2026-05-06 00:19 | 50.83862 | -8.34049 | 41071 ft | 518 kts | 130° |
| 2026-05-06 00:19 | 50.79242 | -8.25307 | 41064 ft | 518 kts | 130° |
| 2026-05-06 00:20 | 50.74621 | -8.16596 | 41064 ft | 517 kts | 130° |
| 2026-05-06 00:20 | 50.69997 | -8.07904 | 41061 ft | 517 kts | 131° |
| 2026-05-06 00:21 | 50.66160 | -8.00657 | 41063 ft | 517 kts | 126° |
| 2026-05-06 00:21 | 50.61780 | -7.89417 | 41069 ft | 519 kts | 121° |
| 2026-05-06 00:22 | 50.58086 | -7.79647 | 41070 ft | 519 kts | 122° |
| 2026-05-06 00:22 | 50.54980 | -7.71509 | 41068 ft | 518 kts | 121° |
| 2026-05-06 00:23 | 50.51278 | -7.61777 | 41066 ft | 519 kts | 122° |
| 2026-05-06 00:23 | 50.47549 | -7.52059 | 41065 ft | 519 kts | 122° |
| 2026-05-06 00:24 | 50.43825 | -7.42359 | 41066 ft | 518 kts | 122° |
| 2026-05-06 00:24 | 50.40118 | -7.32759 | 41061 ft | 518 kts | 122° |
| 2026-05-06 00:25 | 50.36368 | -7.23072 | 41064 ft | 518 kts | 122° |
| 2026-05-06 00:25 | 50.32620 | -7.13431 | 41062 ft | 519 kts | 122° |
| 2026-05-06 00:26 | 50.28860 | -7.03793 | 41060 ft | 518 kts | 122° |
| 2026-05-06 00:26 | 50.25091 | -6.94170 | 41061 ft | 518 kts | 122° |
| 2026-05-06 00:27 | 50.21288 | -6.84494 | 41060 ft | 518 kts | 122° |
| 2026-05-06 00:27 | 50.17605 | -6.75156 | 41056 ft | 518 kts | 122° |
| 2026-05-06 00:28 | 50.13770 | -6.65472 | 41052 ft | 518 kts | 122° |
| 2026-05-06 00:28 | 50.09969 | -6.55905 | 41054 ft | 518 kts | 122° |
| 2026-05-06 00:29 | 50.06162 | -6.46360 | 41047 ft | 518 kts | 122° |
| 2026-05-06 00:29 | 50.02364 | -6.36874 | 41049 ft | 518 kts | 122° |
| 2026-05-06 00:30 | 49.98542 | -6.27358 | 41048 ft | 518 kts | 122° |
| 2026-05-06 00:30 | 49.94741 | -6.17932 | 41041 ft | 518 kts | 122° |
| 2026-05-06 00:31 | 49.90908 | -6.08459 | 41042 ft | 518 kts | 123° |
| 2026-05-06 00:31 | 49.87096 | -5.99072 | 41038 ft | 519 kts | 123° |
| 2026-05-06 00:32 | 49.83256 | -5.89650 | 41034 ft | 518 kts | 123° |
| 2026-05-06 00:32 | 49.79388 | -5.80194 | 41031 ft | 518 kts | 123° |
| 2026-05-06 00:33 | 49.75525 | -5.70783 | 41026 ft | 519 kts | 123° |
| 2026-05-06 00:33 | 49.71649 | -5.61373 | 41021 ft | 519 kts | 123° |
| 2026-05-06 00:34 | 49.67809 | -5.52086 | 41019 ft | 520 kts | 123° |
| 2026-05-06 00:34 | 49.63866 | -5.42582 | 41017 ft | 520 kts | 123° |
| 2026-05-06 00:35 | 49.59954 | -5.33186 | 41011 ft | 520 kts | 123° |
| 2026-05-06 00:35 | 49.56036 | -5.23809 | 41008 ft | 519 kts | 123° |
| 2026-05-06 00:36 | 49.52135 | -5.14504 | 41011 ft | 519 kts | 123° |
| 2026-05-06 00:36 | 49.47821 | -5.05635 | 41033 ft | 516 kts | 139° |
| 2026-05-06 00:37 | 49.42052 | -4.99167 | 41013 ft | 516 kts | 147° |
| 2026-05-06 00:37 | 49.36048 | -4.93058 | 41009 ft | 516 kts | 147° |
| 2026-05-06 00:38 | 49.30069 | -4.86955 | 41010 ft | 516 kts | 147° |
| 2026-05-06 00:38 | 49.24115 | -4.80919 | 41010 ft | 516 kts | 147° |
| 2026-05-06 00:39 | 49.18075 | -4.74802 | 41007 ft | 516 kts | 147° |
| 2026-05-06 00:39 | 49.12110 | -4.68782 | 41011 ft | 516 kts | 147° |
| 2026-05-06 00:40 | 49.06098 | -4.62732 | 40999 ft | 516 kts | 147° |
| 2026-05-06 00:40 | 49.00087 | -4.56701 | 40995 ft | 517 kts | 147° |
| 2026-05-06 00:41 | 48.94108 | -4.50719 | 40998 ft | 517 kts | 147° |
| 2026-05-06 00:41 | 48.88079 | -4.44706 | 40994 ft | 516 kts | 147° |
| 2026-05-06 00:42 | 48.82053 | -4.38711 | 40996 ft | 516 kts | 147° |
| 2026-05-06 00:42 | 48.76103 | -4.32811 | 40994 ft | 516 kts | 148° |
| 2026-05-06 00:43 | 48.70071 | -4.26847 | 40997 ft | 516 kts | 147° |
| 2026-05-06 00:43 | 48.64080 | -4.20940 | 40999 ft | 516 kts | 148° |
| 2026-05-06 00:44 | 48.58061 | -4.15023 | 41007 ft | 515 kts | 147° |
| 2026-05-06 00:44 | 48.52048 | -4.09128 | 41004 ft | 514 kts | 147° |
| 2026-05-06 00:45 | 48.46039 | -4.03254 | 41002 ft | 514 kts | 147° |
| 2026-05-06 00:45 | 48.40053 | -3.97420 | 40993 ft | 514 kts | 147° |
| 2026-05-06 00:46 | 48.34062 | -3.91596 | 40985 ft | 514 kts | 148° |
| 2026-05-06 00:46 | 48.28044 | -3.85764 | 40974 ft | 514 kts | 148° |
| 2026-05-06 00:47 | 48.22049 | -3.79971 | 40971 ft | 514 kts | 148° |
| 2026-05-06 00:47 | 48.16026 | -3.74166 | 40976 ft | 514 kts | 148° |
| 2026-05-06 00:48 | 48.09992 | -3.68367 | 40967 ft | 514 kts | 148° |
| 2026-05-06 00:48 | 48.04278 | -3.61992 | 40979 ft | 515 kts | 132° |
| 2026-05-06 00:48 | 48.02061 | -3.57792 | 41006 ft | 516 kts | 121° |
| 2026-05-06 00:49 | 48.00387 | -3.53055 | 40979 ft | 517 kts | 115° |
| 2026-05-06 00:49 | 47.97420 | -3.43284 | 40971 ft | 517 kts | 114° |
| 2026-05-06 00:50 | 47.94423 | -3.33450 | 40970 ft | 517 kts | 115° |
| 2026-05-06 00:50 | 47.91449 | -3.23759 | 40974 ft | 517 kts | 114° |
| 2026-05-06 00:51 | 47.88447 | -3.13986 | 40966 ft | 517 kts | 115° |
| 2026-05-06 00:51 | 47.85436 | -3.04243 | 40958 ft | 517 kts | 115° |
| 2026-05-06 00:52 | 47.82426 | -2.94527 | 40950 ft | 517 kts | 115° |
| 2026-05-06 00:52 | 47.79420 | -2.84871 | 40949 ft | 516 kts | 115° |
| 2026-05-06 00:53 | 47.76416 | -2.75249 | 40937 ft | 504 kts | 115° |
| 2026-05-06 00:53 | 47.73517 | -2.66008 | 40924 ft | 492 kts | 115° |
| 2026-05-06 00:54 | 47.70621 | -2.56805 | 40933 ft | 492 kts | 115° |
| 2026-05-06 00:54 | 47.68108 | -2.49213 | 40946 ft | 494 kts | 124° |
| 2026-05-06 00:55 | 47.64278 | -2.40727 | 40941 ft | 496 kts | 124° |
| 2026-05-06 00:55 | 47.59802 | -2.30829 | 40943 ft | 497 kts | 124° |
| 2026-05-06 00:56 | 47.56569 | -2.23711 | 40929 ft | 496 kts | 124° |
| 2026-05-06 00:56 | 47.52730 | -2.15293 | 40927 ft | 495 kts | 124° |
| 2026-05-06 00:57 | 47.48869 | -2.06828 | 40921 ft | 495 kts | 124° |
| 2026-05-06 00:57 | 47.45007 | -1.98406 | 40923 ft | 495 kts | 124° |
| 2026-05-06 00:58 | 47.41156 | -1.90021 | 40915 ft | 495 kts | 124° |
| 2026-05-06 00:58 | 47.37278 | -1.81613 | 40919 ft | 495 kts | 124° |
| 2026-05-06 00:59 | 47.33387 | -1.73195 | 40914 ft | 495 kts | 124° |
| 2026-05-06 00:59 | 47.29515 | -1.64847 | 40922 ft | 495 kts | 125° |
| 2026-05-06 01:00 | 47.25608 | -1.56447 | 40920 ft | 496 kts | 125° |
| 2026-05-06 01:00 | 47.21698 | -1.48068 | 40910 ft | 496 kts | 125° |
| 2026-05-06 01:01 | 47.17795 | -1.39729 | 40908 ft | 496 kts | 125° |
| 2026-05-06 01:01 | 47.13859 | -1.31344 | 40901 ft | 496 kts | 125° |
| 2026-05-06 01:02 | 47.09957 | -1.23057 | 40895 ft | 496 kts | 125° |
| 2026-05-06 01:02 | 47.05975 | -1.14627 | 40889 ft | 496 kts | 125° |
| 2026-05-06 01:03 | 47.02020 | -1.06278 | 40880 ft | 496 kts | 125° |
| 2026-05-06 01:03 | 46.98079 | -0.97984 | 40874 ft | 496 kts | 126° |
| 2026-05-06 01:04 | 46.94123 | -0.89683 | 40874 ft | 496 kts | 126° |
| 2026-05-06 01:04 | 46.90163 | -0.81399 | 40872 ft | 496 kts | 126° |
| 2026-05-06 01:05 | 46.86220 | -0.73175 | 40871 ft | 496 kts | 126° |
| 2026-05-06 01:05 | 46.82243 | -0.64904 | 40866 ft | 496 kts | 126° |
| 2026-05-06 01:06 | 46.78258 | -0.56641 | 40860 ft | 496 kts | 126° |
| 2026-05-06 01:06 | 46.74267 | -0.48392 | 40860 ft | 497 kts | 126° |
| 2026-05-06 01:07 | 46.66548 | -0.32502 | 40856 ft | 496 kts | 126° |
| 2026-05-06 01:08 | 46.62612 | -0.24319 | 40863 ft | 495 kts | 121° |
| 2026-05-06 01:08 | 46.59127 | -0.15608 | 40861 ft | 496 kts | 121° |
| 2026-05-06 01:09 | 46.55669 | -0.06998 | 40872 ft | 496 kts | 121° |
| 2026-05-06 01:09 | 46.52177 | 0.01653 | 40864 ft | 495 kts | 121° |
| 2026-05-06 01:10 | 46.48707 | 0.10247 | 40871 ft | 495 kts | 121° |
| 2026-05-06 01:10 | 46.45207 | 0.18867 | 40873 ft | 495 kts | 121° |
| 2026-05-06 01:11 | 46.41705 | 0.27480 | 40871 ft | 496 kts | 122° |
| 2026-05-06 01:11 | 46.38195 | 0.36075 | 40871 ft | 495 kts | 122° |
| 2026-05-06 01:12 | 46.34699 | 0.44617 | 40866 ft | 496 kts | 122° |
| 2026-05-06 01:12 | 46.31168 | 0.53214 | 40877 ft | 497 kts | 122° |
| 2026-05-06 01:13 | 46.27633 | 0.61793 | 40880 ft | 498 kts | 122° |
| 2026-05-06 01:13 | 46.24082 | 0.70387 | 40878 ft | 498 kts | 122° |
| 2026-05-06 01:14 | 46.18743 | 0.83255 | 40879 ft | 496 kts | 122° |
| 2026-05-06 01:14 | 46.15203 | 0.91755 | 40882 ft | 495 kts | 122° |
| 2026-05-06 01:15 | 46.11642 | 1.00280 | 40879 ft | 494 kts | 122° |
| 2026-05-06 01:15 | 46.08082 | 1.08774 | 40881 ft | 495 kts | 123° |
| 2026-05-06 01:16 | 46.04530 | 1.17226 | 40881 ft | 496 kts | 123° |
| 2026-05-06 01:16 | 46.00947 | 1.25725 | 40880 ft | 496 kts | 123° |
| 2026-05-06 01:17 | 45.97362 | 1.34203 | 40877 ft | 496 kts | 123° |
| 2026-05-06 01:17 | 45.93918 | 1.42758 | 40896 ft | 496 kts | 118° |
| 2026-05-06 01:18 | 45.90772 | 1.51607 | 40890 ft | 497 kts | 119° |
| 2026-05-06 01:18 | 45.87621 | 1.60395 | 40892 ft | 497 kts | 119° |
| 2026-05-06 01:19 | 45.84439 | 1.69268 | 40890 ft | 497 kts | 119° |
| 2026-05-06 01:19 | 45.81266 | 1.78073 | 40885 ft | 497 kts | 119° |
| 2026-05-06 01:20 | 45.78088 | 1.86868 | 40886 ft | 497 kts | 119° |
| 2026-05-06 01:20 | 45.74908 | 1.95640 | 40887 ft | 498 kts | 119° |
| 2026-05-06 01:21 | 45.71702 | 2.04453 | 40885 ft | 498 kts | 120° |
| 2026-05-06 01:21 | 45.68490 | 2.13255 | 40881 ft | 498 kts | 120° |
| 2026-05-06 01:22 | 45.65271 | 2.22048 | 40876 ft | 498 kts | 120° |
| 2026-05-06 01:22 | 45.62062 | 2.30784 | 40880 ft | 498 kts | 120° |
| 2026-05-06 01:23 | 45.58831 | 2.39554 | 40877 ft | 498 kts | 120° |
| 2026-05-06 01:23 | 45.55613 | 2.48257 | 40882 ft | 497 kts | 120° |
| 2026-05-06 01:24 | 45.52379 | 2.56979 | 40881 ft | 497 kts | 120° |
| 2026-05-06 01:24 | 45.49157 | 2.65639 | 40878 ft | 497 kts | 120° |
| 2026-05-06 01:25 | 45.45909 | 2.74342 | 40878 ft | 496 kts | 120° |
| 2026-05-06 01:25 | 45.42662 | 2.83011 | 40873 ft | 496 kts | 120° |
| 2026-05-06 01:26 | 45.39420 | 2.91645 | 40870 ft | 496 kts | 121° |
| 2026-05-06 01:26 | 45.36160 | 3.00295 | 40868 ft | 497 kts | 121° |
| 2026-05-06 01:27 | 45.32888 | 3.08952 | 40868 ft | 497 kts | 121° |
| 2026-05-06 01:27 | 45.29604 | 3.17614 | 40867 ft | 498 kts | 121° |
| 2026-05-06 01:28 | 45.26310 | 3.26275 | 40871 ft | 497 kts | 121° |
| 2026-05-06 01:28 | 45.23025 | 3.34882 | 40869 ft | 498 kts | 121° |
| 2026-05-06 01:29 | 45.19721 | 3.43514 | 40870 ft | 499 kts | 121° |
| 2026-05-06 01:29 | 45.16406 | 3.52150 | 40871 ft | 499 kts | 121° |
| 2026-05-06 01:30 | 45.13081 | 3.60782 | 40875 ft | 498 kts | 121° |
| 2026-05-06 01:30 | 45.09747 | 3.69411 | 40870 ft | 498 kts | 122° |
| 2026-05-06 01:31 | 45.06417 | 3.78002 | 40875 ft | 499 kts | 122° |
| 2026-05-06 01:31 | 45.03237 | 3.86741 | 40882 ft | 500 kts | 120° |
| 2026-05-06 01:32 | 45.00038 | 3.95495 | 40881 ft | 501 kts | 120° |
| 2026-05-06 01:32 | 44.96910 | 4.04232 | 40878 ft | 501 kts | 120° |
| 2026-05-06 01:33 | 44.93718 | 4.12991 | 40874 ft | 501 kts | 120° |
| 2026-05-06 01:33 | 44.90548 | 4.21736 | 40879 ft | 501 kts | 120° |
| 2026-05-06 01:34 | 44.87351 | 4.30486 | 40880 ft | 501 kts | 120° |
| 2026-05-06 01:34 | 44.84165 | 4.39197 | 40879 ft | 502 kts | 120° |
| 2026-05-06 01:35 | 44.80956 | 4.47935 | 40875 ft | 502 kts | 121° |
| 2026-05-06 01:35 | 44.77739 | 4.56673 | 40868 ft | 502 kts | 121° |
| 2026-05-06 01:36 | 44.74515 | 4.65396 | 40868 ft | 502 kts | 121° |
| 2026-05-06 01:36 | 44.71276 | 4.74136 | 40869 ft | 502 kts | 121° |
| 2026-05-06 01:37 | 44.68036 | 4.82849 | 40869 ft | 502 kts | 121° |
| 2026-05-06 01:37 | 44.64805 | 4.91510 | 40869 ft | 502 kts | 121° |
| 2026-05-06 01:38 | 44.61549 | 5.00212 | 40867 ft | 503 kts | 121° |
| 2026-05-06 01:38 | 44.58282 | 5.08919 | 40868 ft | 503 kts | 121° |
| 2026-05-06 01:39 | 44.55031 | 5.17551 | 40868 ft | 502 kts | 121° |
| 2026-05-06 01:39 | 44.51777 | 5.26165 | 40873 ft | 503 kts | 122° |
| 2026-05-06 01:40 | 44.48475 | 5.34882 | 40883 ft | 504 kts | 122° |
| 2026-05-06 01:40 | 44.45169 | 5.43579 | 40887 ft | 504 kts | 122° |
| 2026-05-06 01:41 | 44.41871 | 5.52230 | 40887 ft | 504 kts | 122° |
| 2026-05-06 01:41 | 44.38558 | 5.60890 | 40884 ft | 504 kts | 122° |
| 2026-05-06 01:42 | 44.34993 | 5.68562 | 40887 ft | 501 kts | 128° |
| 2026-05-06 01:42 | 44.31078 | 5.76624 | 40887 ft | 501 kts | 128° |
| 2026-05-06 01:43 | 44.27148 | 5.84705 | 40878 ft | 501 kts | 128° |
| 2026-05-06 01:43 | 44.23249 | 5.92688 | 40869 ft | 501 kts | 128° |
| 2026-05-06 01:44 | 44.19305 | 6.00752 | 40873 ft | 503 kts | 129° |
| 2026-05-06 01:44 | 44.15351 | 6.08805 | 40869 ft | 503 kts | 129° |
| 2026-05-06 01:45 | 44.11410 | 6.16817 | 40870 ft | 502 kts | 129° |
| 2026-05-06 01:45 | 44.07455 | 6.24831 | 40862 ft | 502 kts | 129° |
| 2026-05-06 01:46 | 44.03501 | 6.32823 | 40871 ft | 501 kts | 129° |
| 2026-05-06 01:46 | 43.99575 | 6.40733 | 40875 ft | 500 kts | 129° |
| 2026-05-06 01:47 | 43.95585 | 6.48754 | 40878 ft | 500 kts | 129° |
| 2026-05-06 01:47 | 43.91620 | 6.56701 | 40876 ft | 500 kts | 129° |
| 2026-05-06 01:48 | 43.87657 | 6.64626 | 40880 ft | 499 kts | 130° |
| 2026-05-06 01:48 | 43.83701 | 6.72512 | 40874 ft | 498 kts | 130° |
| 2026-05-06 01:49 | 43.79745 | 6.80378 | 40884 ft | 497 kts | 130° |
| 2026-05-06 01:49 | 43.75814 | 6.88173 | 40868 ft | 497 kts | 130° |
| 2026-05-06 01:50 | 43.71857 | 6.96050 | 40867 ft | 498 kts | 127° |
| 2026-05-06 01:50 | 43.68131 | 7.04037 | 40865 ft | 497 kts | 128° |
| 2026-05-06 01:51 | 43.64339 | 7.12099 | 40859 ft | 500 kts | 128° |
| 2026-05-06 01:51 | 43.60557 | 7.20168 | 40851 ft | 500 kts | 128° |
| 2026-05-06 01:52 | 43.56762 | 7.28201 | 40853 ft | 499 kts | 128° |
| 2026-05-06 01:52 | 43.52991 | 7.36192 | 40854 ft | 499 kts | 128° |
| 2026-05-06 01:53 | 43.49184 | 7.44213 | 40853 ft | 499 kts | 128° |
| 2026-05-06 01:53 | 43.45373 | 7.52238 | 40851 ft | 500 kts | 128° |
| 2026-05-06 01:54 | 43.41565 | 7.60225 | 40855 ft | 500 kts | 128° |
| 2026-05-06 01:54 | 43.37735 | 7.68242 | 40854 ft | 500 kts | 128° |
| 2026-05-06 01:55 | 43.33933 | 7.76175 | 40856 ft | 499 kts | 129° |
| 2026-05-06 01:55 | 43.30107 | 7.84137 | 40857 ft | 498 kts | 129° |
| 2026-05-06 01:56 | 43.26280 | 7.92082 | 40861 ft | 499 kts | 129° |
| 2026-05-06 01:56 | 43.22464 | 7.99981 | 40864 ft | 499 kts | 129° |
| 2026-05-06 01:57 | 43.18621 | 8.07915 | 40865 ft | 498 kts | 129° |
| 2026-05-06 01:57 | 43.14784 | 8.15815 | 40863 ft | 497 kts | 129° |
| 2026-05-06 01:58 | 43.13515 | 8.18425 | 40607 ft | 496 kts | 129° |
| 2026-05-06 01:58 | 43.11591 | 8.22374 | 39986 ft | 499 kts | 129° |
| 2026-05-06 01:58 | 43.09040 | 8.27603 | 39357 ft | 498 kts | 130° |
| 2026-05-06 01:58 | 43.07741 | 8.30264 | 39034 ft | 497 kts | 130° |
| 2026-05-06 01:59 | 43.05816 | 8.34202 | 38544 ft | 497 kts | 130° |
| 2026-05-06 01:59 | 43.03910 | 8.38091 | 37896 ft | 497 kts | 131° |
| 2026-05-06 01:59 | 43.01977 | 8.42031 | 37189 ft | 499 kts | 131° |
| 2026-05-06 01:59 | 43.00040 | 8.45975 | 36469 ft | 500 kts | 131° |
| 2026-05-06 02:00 | 42.97435 | 8.51275 | 35509 ft | 502 kts | 131° |
| 2026-05-06 02:00 | 42.96145 | 8.53895 | 35032 ft | 503 kts | 132° |
| 2026-05-06 02:00 | 42.94181 | 8.57878 | 34312 ft | 505 kts | 132° |
| 2026-05-06 02:00 | 42.92233 | 8.61824 | 33529 ft | 507 kts | 132° |
| 2026-05-06 02:01 | 42.90259 | 8.65820 | 32986 ft | 503 kts | 132° |
| 2026-05-06 02:01 | 42.88449 | 8.69915 | 32466 ft | 505 kts | 126° |
| 2026-05-06 02:01 | 42.86791 | 8.74132 | 31922 ft | 501 kts | 126° |
| 2026-05-06 02:02 | 42.79909 | 8.91436 | 29757 ft | 486 kts | 126° |
| 2026-05-06 02:02 | 42.78242 | 8.95617 | 29214 ft | 482 kts | 126° |
| 2026-05-06 02:03 | 42.76639 | 8.99624 | 28677 ft | 478 kts | 125° |
| 2026-05-06 02:03 | 42.75055 | 9.03582 | 28151 ft | 473 kts | 125° |
| 2026-05-06 02:03 | 42.73498 | 9.07473 | 27659 ft | 469 kts | 125° |
| 2026-05-06 02:03 | 42.72461 | 9.10057 | 27313 ft | 467 kts | 125° |
| 2026-05-06 02:04 | 42.70393 | 9.15207 | 26677 ft | 461 kts | 125° |
| 2026-05-06 02:04 | 42.69375 | 9.17741 | 26332 ft | 458 kts | 124° |
| 2026-05-06 02:04 | 42.67849 | 9.21537 | 25842 ft | 455 kts | 124° |
| 2026-05-06 02:04 | 42.66338 | 9.25287 | 25369 ft | 450 kts | 124° |
| 2026-05-06 02:05 | 42.64836 | 9.29010 | 24890 ft | 447 kts | 124° |
| 2026-05-06 02:05 | 42.63348 | 9.32696 | 24433 ft | 443 kts | 124° |
| 2026-05-06 02:05 | 42.61881 | 9.36323 | 23989 ft | 440 kts | 123° |
| 2026-05-06 02:05 | 42.60413 | 9.39950 | 23535 ft | 436 kts | 123° |
| 2026-05-06 02:06 | 42.59123 | 9.43675 | 22983 ft | 437 kts | 112° |
| 2026-05-06 02:06 | 42.58409 | 9.47680 | 22448 ft | 439 kts | 100° |
| 2026-05-06 02:06 | 42.58317 | 9.51834 | 21946 ft | 440 kts | 87° |
| 2026-05-06 02:06 | 42.58826 | 9.55865 | 21434 ft | 438 kts | 79° |
| 2026-05-06 02:07 | 42.59511 | 9.59877 | 20922 ft | 435 kts | 79° |
| 2026-05-06 02:07 | 42.60209 | 9.63869 | 20426 ft | 431 kts | 78° |
| 2026-05-06 02:07 | 42.60901 | 9.67820 | 19928 ft | 428 kts | 79° |
| 2026-05-06 02:07 | 42.61579 | 9.71749 | 19437 ft | 424 kts | 79° |
| 2026-05-06 02:08 | 42.62239 | 9.75604 | 18990 ft | 420 kts | 79° |
| 2026-05-06 02:08 | 42.62898 | 9.79427 | 18904 ft | 409 kts | 79° |
| 2026-05-06 02:08 | 42.63544 | 9.83187 | 18901 ft | 412 kts | 79° |
| 2026-05-06 02:08 | 42.64199 | 9.87026 | 18906 ft | 418 kts | 79° |
| 2026-05-06 02:09 | 42.64848 | 9.90823 | 18903 ft | 418 kts | 79° |
| 2026-05-06 02:09 | 42.65510 | 9.94684 | 18903 ft | 419 kts | 79° |
| 2026-05-06 02:09 | 42.66167 | 9.98540 | 18903 ft | 419 kts | 79° |
| 2026-05-06 02:09 | 42.66824 | 10.02409 | 18909 ft | 419 kts | 79° |
| 2026-05-06 02:10 | 42.67480 | 10.06277 | 18908 ft | 419 kts | 79° |
| 2026-05-06 02:10 | 42.68136 | 10.10152 | 18911 ft | 419 kts | 79° |
| 2026-05-06 02:10 | 42.68781 | 10.13970 | 18917 ft | 419 kts | 79° |
| 2026-05-06 02:10 | 42.69434 | 10.17842 | 18913 ft | 419 kts | 79° |
| 2026-05-06 02:11 | 42.70084 | 10.21711 | 18917 ft | 419 kts | 79° |
| 2026-05-06 02:11 | 42.70734 | 10.25583 | 18919 ft | 420 kts | 79° |
| 2026-05-06 02:11 | 42.71381 | 10.29448 | 18923 ft | 420 kts | 79° |
| 2026-05-06 02:11 | 42.72030 | 10.33330 | 18924 ft | 420 kts | 79° |
| 2026-05-06 02:12 | 42.72675 | 10.37206 | 18928 ft | 420 kts | 80° |
| 2026-05-06 02:12 | 42.73004 | 10.41078 | 18929 ft | 416 kts | 94° |
| 2026-05-06 02:12 | 42.72877 | 10.45041 | 18932 ft | 415 kts | 96° |
| 2026-05-06 02:12 | 42.72717 | 10.48922 | 18935 ft | 415 kts | 96° |
| 2026-05-06 02:13 | 42.72553 | 10.52847 | 18936 ft | 416 kts | 96° |
| 2026-05-06 02:13 | 42.72403 | 10.56786 | 18938 ft | 416 kts | 96° |
| 2026-05-06 02:13 | 42.72256 | 10.60666 | 18935 ft | 403 kts | 97° |
| 2026-05-06 02:13 | 42.71783 | 10.64309 | 18944 ft | 381 kts | 113° |
| 2026-05-06 02:14 | 42.70692 | 10.67501 | 18949 ft | 367 kts | 127° |
| 2026-05-06 02:14 | 42.69353 | 10.70446 | 18939 ft | 367 kts | 127° |
| 2026-05-06 02:14 | 42.67996 | 10.73400 | 18936 ft | 369 kts | 127° |
| 2026-05-06 02:14 | 42.66650 | 10.76328 | 18935 ft | 370 kts | 127° |
| 2026-05-06 02:15 | 42.65280 | 10.79321 | 18936 ft | 370 kts | 127° |
| 2026-05-06 02:15 | 42.63918 | 10.82295 | 18934 ft | 371 kts | 127° |
| 2026-05-06 02:15 | 42.62553 | 10.85264 | 18935 ft | 371 kts | 127° |
| 2026-05-06 02:15 | 42.61184 | 10.88240 | 18937 ft | 371 kts | 127° |
| 2026-05-06 02:16 | 42.59814 | 10.91215 | 18937 ft | 371 kts | 127° |
| 2026-05-06 02:16 | 42.58443 | 10.94191 | 18937 ft | 371 kts | 126° |
| 2026-05-06 02:16 | 42.57091 | 10.97122 | 18940 ft | 371 kts | 126° |
| 2026-05-06 02:16 | 42.55722 | 11.00088 | 18939 ft | 371 kts | 126° |
| 2026-05-06 02:17 | 42.54351 | 11.03055 | 18953 ft | 371 kts | 126° |
| 2026-05-06 02:17 | 42.52980 | 11.06018 | 18960 ft | 371 kts | 126° |
| 2026-05-06 02:17 | 42.51608 | 11.08982 | 18957 ft | 370 kts | 126° |
| 2026-05-06 02:17 | 42.50244 | 11.11925 | 18774 ft | 367 kts | 126° |
| 2026-05-06 02:18 | 42.48891 | 11.14844 | 18925 ft | 367 kts | 126° |
| 2026-05-06 02:18 | 42.47509 | 11.17810 | 18930 ft | 378 kts | 126° |
| 2026-05-06 02:18 | 42.46101 | 11.20836 | 18929 ft | 379 kts | 126° |
| 2026-05-06 02:18 | 42.44740 | 11.23835 | 18929 ft | 378 kts | 121° |
| 2026-05-06 02:19 | 42.43866 | 11.27228 | 18837 ft | 388 kts | 103° |
| 2026-05-06 02:19 | 42.43439 | 11.30870 | 18432 ft | 392 kts | 101° |
| 2026-05-06 02:19 | 42.43048 | 11.34519 | 17922 ft | 390 kts | 101° |
| 2026-05-06 02:19 | 42.42655 | 11.38125 | 17401 ft | 388 kts | 101° |
| 2026-05-06 02:20 | 42.41833 | 11.45294 | 16389 ft | 382 kts | 101° |
| 2026-05-06 02:20 | 42.41433 | 11.48841 | 15875 ft | 380 kts | 101° |
| 2026-05-06 02:20 | 42.41018 | 11.52356 | 15386 ft | 375 kts | 105° |
| 2026-05-06 02:21 | 42.40105 | 11.55544 | 15015 ft | 362 kts | 124° |
| 2026-05-06 02:21 | 42.38587 | 11.58110 | 14993 ft | 338 kts | 142° |
| 2026-05-06 02:21 | 42.36723 | 11.59877 | 14767 ft | 322 kts | 158° |
| 2026-05-06 02:21 | 42.34640 | 11.60950 | 14294 ft | 319 kts | 164° |
| 2026-05-06 02:22 | 42.32531 | 11.61939 | 13822 ft | 319 kts | 164° |
| 2026-05-06 02:22 | 42.30480 | 11.62893 | 13277 ft | 301 kts | 164° |
| 2026-05-06 02:22 | 42.28570 | 11.63785 | 12727 ft | 284 kts | 164° |
| 2026-05-06 02:22 | 42.26756 | 11.64631 | 12191 ft | 269 kts | 164° |
| 2026-05-06 02:23 | 42.25007 | 11.65347 | 11654 ft | 255 kts | 167° |
| 2026-05-06 02:23 | 42.23347 | 11.66083 | 11158 ft | 245 kts | 165° |
| 2026-05-06 02:23 | 42.21762 | 11.66809 | 10670 ft | 237 kts | 166° |
| 2026-05-06 02:23 | 42.20226 | 11.67472 | 10201 ft | 233 kts | 166° |
| 2026-05-06 02:24 | 42.18661 | 11.68133 | 9724 ft | 237 kts | 166° |
| 2026-05-06 02:24 | 42.17069 | 11.68815 | 9221 ft | 243 kts | 166° |
| 2026-05-06 02:24 | 42.15444 | 11.69518 | 9005 ft | 237 kts | 166° |
| 2026-05-06 02:24 | 42.13907 | 11.70184 | 9001 ft | 229 kts | 166° |
| 2026-05-06 02:25 | 42.12389 | 11.70833 | 9007 ft | 228 kts | 166° |
| 2026-05-06 02:25 | 42.10883 | 11.71478 | 9006 ft | 226 kts | 166° |
| 2026-05-06 02:25 | 42.09403 | 11.72114 | 9011 ft | 226 kts | 166° |
| 2026-05-06 02:25 | 42.07907 | 11.72771 | 9011 ft | 227 kts | 163° |
| 2026-05-06 02:26 | 42.05865 | 11.75685 | 8999 ft | 246 kts | 114° |
| 2026-05-06 02:26 | 42.05714 | 11.78007 | 8999 ft | 256 kts | 84° |
| 2026-05-06 02:26 | 42.06200 | 11.80323 | 9012 ft | 258 kts | 75° |
| 2026-05-06 02:27 | 42.06771 | 11.82623 | 9023 ft | 259 kts | 75° |
| 2026-05-06 02:27 | 42.07348 | 11.84888 | 9028 ft | 260 kts | 71° |
| 2026-05-06 02:27 | 42.08454 | 11.86799 | 9004 ft | 263 kts | 38° |
| 2026-05-06 02:27 | 42.10093 | 11.87750 | 9000 ft | 261 kts | 6° |
| 2026-05-06 02:28 | 42.11869 | 11.87545 | 9013 ft | 255 kts | 340° |
| 2026-05-06 02:28 | 42.13541 | 11.86844 | 9020 ft | 255 kts | 338° |
| 2026-05-06 02:28 | 42.15224 | 11.86104 | 9022 ft | 253 kts | 338° |
| 2026-05-06 02:28 | 42.16909 | 11.85376 | 9025 ft | 254 kts | 338° |
| 2026-05-06 02:29 | 42.18602 | 11.84656 | 9024 ft | 255 kts | 338° |
| 2026-05-06 02:29 | 42.20293 | 11.83934 | 9019 ft | 254 kts | 338° |
| 2026-05-06 02:29 | 42.21957 | 11.83221 | 9019 ft | 254 kts | 338° |
| 2026-05-06 02:29 | 42.23643 | 11.82497 | 9015 ft | 255 kts | 338° |
| 2026-05-06 02:30 | 42.25331 | 11.81773 | 9020 ft | 255 kts | 338° |
| 2026-05-06 02:30 | 42.27019 | 11.81049 | 9015 ft | 254 kts | 338° |
| 2026-05-06 02:30 | 42.28708 | 11.80330 | 9017 ft | 255 kts | 340° |
| 2026-05-06 02:30 | 42.30484 | 11.80193 | 8992 ft | 261 kts | 9° |
| 2026-05-06 02:31 | 42.32114 | 11.81251 | 8995 ft | 263 kts | 41° |
| 2026-05-06 02:31 | 42.33157 | 11.83240 | 8997 ft | 259 kts | 71° |
| 2026-05-06 02:31 | 42.33723 | 11.85529 | 9014 ft | 258 kts | 76° |
| 2026-05-06 02:31 | 42.34252 | 11.87845 | 9025 ft | 258 kts | 76° |
| 2026-05-06 02:32 | 42.34723 | 11.90188 | 9012 ft | 256 kts | 86° |
| 2026-05-06 02:32 | 42.34481 | 11.92465 | 9008 ft | 244 kts | 116° |
| 2026-05-06 02:32 | 42.33547 | 11.94298 | 9009 ft | 234 kts | 143° |
| 2026-05-06 02:32 | 42.32167 | 11.95360 | 9012 ft | 226 kts | 165° |
| 2026-05-06 02:33 | 42.30685 | 11.95997 | 9026 ft | 216 kts | 167° |
| 2026-05-06 02:33 | 42.29756 | 11.96393 | 9025 ft | 207 kts | 167° |
| 2026-05-06 02:34 | 42.25208 | 11.98320 | 7969 ft | 220 kts | 167° |
| 2026-05-06 02:34 | 42.23722 | 11.98955 | 7489 ft | 227 kts | 167° |
| 2026-05-06 02:34 | 42.22198 | 11.99605 | 7016 ft | 231 kts | 166° |
| 2026-05-06 02:34 | 42.20700 | 12.00247 | 6530 ft | 221 kts | 167° |
| 2026-05-06 02:35 | 42.19258 | 12.00861 | 6041 ft | 214 kts | 167° |
| 2026-05-06 02:35 | 42.17864 | 12.01455 | 5532 ft | 209 kts | 167° |
| 2026-05-06 02:35 | 42.16491 | 12.02041 | 5020 ft | 203 kts | 167° |
| 2026-05-06 02:35 | 42.15158 | 12.02611 | 4522 ft | 199 kts | 166° |
| 2026-05-06 02:36 | 42.13863 | 12.03160 | 4114 ft | 193 kts | 165° |
| 2026-05-06 02:36 | 42.12632 | 12.03686 | 3807 ft | 180 kts | 165° |
| 2026-05-06 02:36 | 42.11526 | 12.04475 | 3275 ft | 185 kts | 143° |
| 2026-05-06 02:36 | 42.10660 | 12.05741 | 3029 ft | 179 kts | 136° |
| 2026-05-06 02:37 | 42.09835 | 12.06957 | 3002 ft | 176 kts | 136° |
| 2026-05-06 02:37 | 42.08992 | 12.08184 | 3012 ft | 179 kts | 136° |
| 2026-05-06 02:37 | 42.08149 | 12.09418 | 3004 ft | 178 kts | 137° |
| 2026-05-06 02:37 | 42.07309 | 12.10645 | 3011 ft | 178 kts | 137° |
| 2026-05-06 02:38 | 42.06468 | 12.11874 | 3009 ft | 179 kts | 137° |
| 2026-05-06 02:38 | 42.05636 | 12.13091 | 3005 ft | 178 kts | 137° |
| 2026-05-06 02:38 | 42.04809 | 12.14305 | 3012 ft | 170 kts | 137° |
| 2026-05-06 02:38 | 42.04033 | 12.15445 | 2989 ft | 160 kts | 137° |
| 2026-05-06 02:39 | 42.03288 | 12.16534 | 2997 ft | 157 kts | 137° |
| 2026-05-06 02:39 | 42.02550 | 12.17611 | 2995 ft | 157 kts | 137° |
| 2026-05-06 02:39 | 42.01769 | 12.18614 | 2976 ft | 154 kts | 148° |
| 2026-05-06 02:39 | 42.00830 | 12.19239 | 2985 ft | 151 kts | 162° |
| 2026-05-06 02:40 | 41.99833 | 12.19711 | 2995 ft | 150 kts | 163° |
| 2026-05-06 02:40 | 41.98882 | 12.20136 | 2963 ft | 146 kts | 164° |
| 2026-05-06 02:40 | 41.97905 | 12.20547 | 2795 ft | 148 kts | 164° |
| 2026-05-06 02:40 | 41.96912 | 12.20962 | 2587 ft | 149 kts | 163° |
| 2026-05-06 02:41 | 41.95962 | 12.21361 | 2397 ft | 138 kts | 163° |
| 2026-05-06 02:41 | 41.95031 | 12.21758 | 2210 ft | 142 kts | 162° |
| 2026-05-06 02:41 | 41.94088 | 12.22156 | 2026 ft | 141 kts | 162° |
| 2026-05-06 02:41 | 41.93161 | 12.22544 | 1835 ft | 141 kts | 162° |
| 2026-05-06 02:42 | 41.92229 | 12.22935 | 1643 ft | 141 kts | 161° |
| 2026-05-06 02:42 | 41.91294 | 12.23332 | 1448 ft | 141 kts | 161° |
| 2026-05-06 02:42 | 41.90354 | 12.23728 | 1262 ft | 141 kts | 161° |
| 2026-05-06 02:42 | 41.89405 | 12.24127 | 1067 ft | 143 kts | 161° |
| 2026-05-06 02:43 | 41.88454 | 12.24526 | 855 ft | 145 kts | 161° |
| 2026-05-06 02:43 | 41.87483 | 12.24939 | 672 ft | 147 kts | 161° |
| 2026-05-06 02:43 | 41.86514 | 12.25345 | 458 ft | 146 kts | 161° |
| 2026-05-06 02:43 | 41.85532 | 12.25760 | 262 ft | 150 kts | 161° |
| 2026-05-06 02:44 | 41.84558 | 12.26166 | 62 ft | 147 kts | 161° |
| 2026-05-06 02:44 | 41.83653 | 12.26547 | 26 ft | 118 kts | 162° |
| 2026-05-06 02:44 | 41.83145 | 12.26769 | 18 ft | 29 kts | 163° |
| 2026-05-06 02:44 | 41.83010 | 12.26816 | 18 ft | 4 kts | 163° |
| 2026-05-06 02:45 | 41.82974 | 12.26832 | 20 ft | 12 kts | 162° |
| 2026-05-06 02:45 | 41.82858 | 12.26869 | 19 ft | 23 kts | 173° |
| 2026-05-06 02:45 | 41.82678 | 12.26861 | 17 ft | 27 kts | 193° |
| 2026-05-06 02:45 | 41.82549 | 12.26822 | 16 ft | 11 kts | 193° |
| 2026-05-06 02:46 | 41.82472 | 12.26795 | 17 ft | 12 kts | 196° |
| 2026-05-06 02:46 | 41.82397 | 12.26781 | 17 ft | 11 kts | 185° |
| 2026-05-06 02:46 | 41.82310 | 12.26786 | 17 ft | 14 kts | 167° |
| 2026-05-06 02:46 | 41.82217 | 12.26824 | 17 ft | 14 kts | 163° |
| 2026-05-06 02:47 | 41.82120 | 12.26864 | 17 ft | 15 kts | 162° |
| 2026-05-06 02:47 | 41.82020 | 12.26908 | 17 ft | 15 kts | 162° |
| 2026-05-06 02:47 | 41.81918 | 12.26953 | 17 ft | 16 kts | 161° |
| 2026-05-06 02:47 | 41.81816 | 12.26992 | 17 ft | 15 kts | 164° |
| 2026-05-06 02:48 | 41.81714 | 12.27034 | 17 ft | 16 kts | 162° |
| 2026-05-06 02:48 | 41.81608 | 12.27078 | 19 ft | 16 kts | 162° |
| 2026-05-06 02:48 | 41.81501 | 12.27124 | 18 ft | 16 kts | 162° |
| 2026-05-06 02:48 | 41.81391 | 12.27169 | 18 ft | 17 kts | 163° |
| 2026-05-06 02:49 | 41.81280 | 12.27215 | 18 ft | 17 kts | 163° |
| 2026-05-06 02:49 | 41.81167 | 12.27261 | 19 ft | 17 kts | 163° |
| 2026-05-06 02:49 | 41.81053 | 12.27309 | 18 ft | 17 kts | 162° |
| 2026-05-06 02:49 | 41.80933 | 12.27349 | 18 ft | 19 kts | 178° |
| 2026-05-06 02:50 | 41.80796 | 12.27324 | 18 ft | 20 kts | 189° |
| 2026-05-06 02:50 | 41.80670 | 12.27257 | 19 ft | 19 kts | 229° |
| 2026-05-06 02:50 | 41.80620 | 12.27092 | 19 ft | 19 kts | 250° |
| 2026-05-06 02:50 | 41.80573 | 12.26922 | 21 ft | 20 kts | 250° |
| 2026-05-06 02:51 | 41.80526 | 12.26751 | 20 ft | 19 kts | 250° |
| 2026-05-06 02:51 | 41.80479 | 12.26584 | 22 ft | 19 kts | 249° |
| 2026-05-06 02:51 | 41.80430 | 12.26411 | 25 ft | 20 kts | 249° |
| 2026-05-06 02:51 | 41.80380 | 12.26235 | 21 ft | 21 kts | 249° |
| 2026-05-06 02:52 | 41.80330 | 12.26051 | 20 ft | 21 kts | 251° |
| 2026-05-06 02:52 | 41.80281 | 12.25861 | 20 ft | 22 kts | 250° |
| 2026-05-06 02:52 | 41.80228 | 12.25669 | 21 ft | 22 kts | 249° |
| 2026-05-06 02:52 | 41.80173 | 12.25475 | 20 ft | 22 kts | 248° |
| 2026-05-06 02:53 | 41.80120 | 12.25277 | 20 ft | 23 kts | 250° |
| 2026-05-06 02:53 | 41.80100 | 12.25071 | 21 ft | 23 kts | 279° |
| 2026-05-06 02:53 | 41.80102 | 12.24861 | 20 ft | 23 kts | 254° |
| 2026-05-06 02:53 | 41.80009 | 12.24805 | 20 ft | 15 kts | 167° |
| 2026-05-06 02:54 | 41.79916 | 12.24776 | 21 ft | 14 kts | 205° |
| 2026-05-06 02:54 | 41.79860 | 12.24741 | 21 ft | 0 kts | 205° |
| 2026-05-06 02:54 | 41.79857 | 12.24740 | 21 ft | 0 kts | 205° |
| 2026-05-06 02:54 | 41.79860 | 12.24742 | 21 ft | 0 kts | 205° |
| 2026-05-06 02:57 | 41.79865 | 12.24744 | 22 ft | 1 kts | 204° |
| 2026-05-06 02:58 | 41.79871 | 12.24748 | 21 ft | 1 kts | 202° |
| 2026-05-06 02:58 | 41.79870 | 12.24748 | 21 ft | 0 kts | 202° |